<?xml version="1.0" encoding="UTF-8"?>
<gpx xmlns="http://www.topografix.com/GPX/1/1" xmlns:xsi="http://www.w3.org/2001/XMLSchema-instance" version="1.1" xsi:schemaLocation="http://www.topografix.com/GPX/1/1 http://www.topografix.com/GPX/1/1/gpx.xsd">
  <metadata>
    <name>Mighty Hamptons Triathlon 2023</name>
  </metadata>
  <trk>
    <name>Mighty Hamptons Triathlon 2023</name>
    <trkseg>
      <trkpt lat="40.998216" lon="-72.322692">
        <ele>0.764822</ele>
        <time>2024-09-08T07:10:00.000Z</time>
      </trkpt>
      <trkpt lat="40.998142" lon="-72.322594">
        <ele>0.764822</ele>
        <time>2024-09-08T07:10:01.000Z</time>
      </trkpt>
      <trkpt lat="40.997776" lon="-72.323115">
        <ele>0.764812</ele>
        <time>2024-09-08T07:10:07.000Z</time>
      </trkpt>
      <trkpt lat="40.996338" lon="-72.325234">
        <ele>0.58744</ele>
        <time>2024-09-08T07:10:31.000Z</time>
      </trkpt>
      <trkpt lat="40.995881" lon="-72.325905">
        <ele>0.503003</ele>
        <time>2024-09-08T07:10:39.000Z</time>
      </trkpt>
      <trkpt lat="40.995541" lon="-72.326528">
        <ele>0.432811</ele>
        <time>2024-09-08T07:10:45.000Z</time>
      </trkpt>
      <trkpt lat="40.995213" lon="-72.327352">
        <ele>0.426295</ele>
        <time>2024-09-08T07:10:53.000Z</time>
      </trkpt>
      <trkpt lat="40.995039" lon="-72.327996">
        <ele>0.523067</ele>
        <time>2024-09-08T07:10:59.000Z</time>
      </trkpt>
      <trkpt lat="40.99493" lon="-72.328805">
        <ele>0.643537</ele>
        <time>2024-09-08T07:11:06.000Z</time>
      </trkpt>
      <trkpt lat="40.994862" lon="-72.329816">
        <ele>1.138349</ele>
        <time>2024-09-08T07:11:15.000Z</time>
      </trkpt>
      <trkpt lat="40.994823" lon="-72.330261">
        <ele>1.548359</ele>
        <time>2024-09-08T07:11:19.000Z</time>
      </trkpt>
      <trkpt lat="40.994752" lon="-72.330644">
        <ele>1.898748</ele>
        <time>2024-09-08T07:11:22.000Z</time>
      </trkpt>
      <trkpt lat="40.994579" lon="-72.331331">
        <ele>2.55358</ele>
        <time>2024-09-08T07:11:28.000Z</time>
      </trkpt>
      <trkpt lat="40.994398" lon="-72.33206">
        <ele>3.65231</ele>
        <time>2024-09-08T07:11:34.000Z</time>
      </trkpt>
      <trkpt lat="40.994354" lon="-72.332351">
        <ele>4.201772</ele>
        <time>2024-09-08T07:11:36.000Z</time>
      </trkpt>
      <trkpt lat="40.994344" lon="-72.33253">
        <ele>4.536241</ele>
        <time>2024-09-08T07:11:38.000Z</time>
      </trkpt>
      <trkpt lat="40.994575" lon="-72.332969">
        <ele>5.50683</ele>
        <time>2024-09-08T07:11:42.000Z</time>
      </trkpt>
      <trkpt lat="40.994686" lon="-72.333299">
        <ele>6.19719</ele>
        <time>2024-09-08T07:11:45.000Z</time>
      </trkpt>
      <trkpt lat="40.994903" lon="-72.334165">
        <ele>7.792436</ele>
        <time>2024-09-08T07:11:53.000Z</time>
      </trkpt>
      <trkpt lat="40.995003" lon="-72.334448">
        <ele>8.297731</ele>
        <time>2024-09-08T07:11:56.000Z</time>
      </trkpt>
      <trkpt lat="40.995374" lon="-72.335031">
        <ele>9.528299</ele>
        <time>2024-09-08T07:12:02.000Z</time>
      </trkpt>
      <trkpt lat="40.995502" lon="-72.335291">
        <ele>10.043422</ele>
        <time>2024-09-08T07:12:05.000Z</time>
      </trkpt>
      <trkpt lat="40.995573" lon="-72.335551">
        <ele>10.505526</ele>
        <time>2024-09-08T07:12:07.000Z</time>
      </trkpt>
      <trkpt lat="40.995668" lon="-72.336202">
        <ele>11.157894</ele>
        <time>2024-09-08T07:12:13.000Z</time>
      </trkpt>
      <trkpt lat="40.995721" lon="-72.336767">
        <ele>11.184018</ele>
        <time>2024-09-08T07:12:18.000Z</time>
      </trkpt>
      <trkpt lat="40.9957" lon="-72.338347">
        <ele>11.239983</ele>
        <time>2024-09-08T07:12:31.000Z</time>
      </trkpt>
      <trkpt lat="40.995761" lon="-72.338969">
        <ele>10.848266</ele>
        <time>2024-09-08T07:12:36.000Z</time>
      </trkpt>
      <trkpt lat="40.995889" lon="-72.339891">
        <ele>10.2628</ele>
        <time>2024-09-08T07:12:44.000Z</time>
      </trkpt>
      <trkpt lat="40.995897" lon="-72.33999">
        <ele>10.205052</ele>
        <time>2024-09-08T07:12:45.000Z</time>
      </trkpt>
      <trkpt lat="40.995899" lon="-72.340172">
        <ele>10.085887</ele>
        <time>2024-09-08T07:12:47.000Z</time>
      </trkpt>
      <trkpt lat="40.995809" lon="-72.340543">
        <ele>9.841393</ele>
        <time>2024-09-08T07:12:50.000Z</time>
      </trkpt>
      <trkpt lat="40.9957" lon="-72.340805">
        <ele>9.750195</ele>
        <time>2024-09-08T07:12:53.000Z</time>
      </trkpt>
      <trkpt lat="40.995658" lon="-72.340971">
        <ele>9.731344</ele>
        <time>2024-09-08T07:12:54.000Z</time>
      </trkpt>
      <trkpt lat="40.995478" lon="-72.341611">
        <ele>9.663715</ele>
        <time>2024-09-08T07:13:00.000Z</time>
      </trkpt>
      <trkpt lat="40.995227" lon="-72.342407">
        <ele>9.5751</ele>
        <time>2024-09-08T07:13:07.000Z</time>
      </trkpt>
      <trkpt lat="40.994954" lon="-72.343167">
        <ele>9.561324</ele>
        <time>2024-09-08T07:13:14.000Z</time>
      </trkpt>
      <trkpt lat="40.994791" lon="-72.343556">
        <ele>9.604887</ele>
        <time>2024-09-08T07:13:18.000Z</time>
      </trkpt>
      <trkpt lat="40.99467" lon="-72.343897">
        <ele>9.641499</ele>
        <time>2024-09-08T07:13:21.000Z</time>
      </trkpt>
      <trkpt lat="40.994627" lon="-72.344002">
        <ele>9.653213</ele>
        <time>2024-09-08T07:13:22.000Z</time>
      </trkpt>
      <trkpt lat="40.994295" lon="-72.344873">
        <ele>9.74623</ele>
        <time>2024-09-08T07:13:30.000Z</time>
      </trkpt>
      <trkpt lat="40.994248" lon="-72.345021">
        <ele>9.699469</ele>
        <time>2024-09-08T07:13:31.000Z</time>
      </trkpt>
      <trkpt lat="40.993993" lon="-72.345774">
        <ele>8.916875</ele>
        <time>2024-09-08T07:13:38.000Z</time>
      </trkpt>
      <trkpt lat="40.993839" lon="-72.346267">
        <ele>8.400656</ele>
        <time>2024-09-08T07:13:42.000Z</time>
      </trkpt>
      <trkpt lat="40.993487" lon="-72.347525">
        <ele>7.172571</ele>
        <time>2024-09-08T07:13:53.000Z</time>
      </trkpt>
      <trkpt lat="40.993438" lon="-72.347766">
        <ele>6.964784</ele>
        <time>2024-09-08T07:13:55.000Z</time>
      </trkpt>
      <trkpt lat="40.993361" lon="-72.348211">
        <ele>6.604731</ele>
        <time>2024-09-08T07:13:59.000Z</time>
      </trkpt>
      <trkpt lat="40.993393" lon="-72.348706">
        <ele>6.198706</ele>
        <time>2024-09-08T07:14:03.000Z</time>
      </trkpt>
      <trkpt lat="40.993411" lon="-72.349259">
        <ele>5.748986</ele>
        <time>2024-09-08T07:14:08.000Z</time>
      </trkpt>
      <trkpt lat="40.993358" lon="-72.349673">
        <ele>5.765462</ele>
        <time>2024-09-08T07:14:12.000Z</time>
      </trkpt>
      <trkpt lat="40.993199" lon="-72.349972">
        <ele>6.275956</ele>
        <time>2024-09-08T07:14:15.000Z</time>
      </trkpt>
      <trkpt lat="40.992876" lon="-72.350397">
        <ele>7.141588</ele>
        <time>2024-09-08T07:14:20.000Z</time>
      </trkpt>
      <trkpt lat="40.992651" lon="-72.350753">
        <ele>7.795188</ele>
        <time>2024-09-08T07:14:24.000Z</time>
      </trkpt>
      <trkpt lat="40.992357" lon="-72.351288">
        <ele>8.743577</ele>
        <time>2024-09-08T07:14:30.000Z</time>
      </trkpt>
      <trkpt lat="40.992269" lon="-72.351487">
        <ele>9.10638</ele>
        <time>2024-09-08T07:14:32.000Z</time>
      </trkpt>
      <trkpt lat="40.991017" lon="-72.354008">
        <ele>13.42429</ele>
        <time>2024-09-08T07:14:57.000Z</time>
      </trkpt>
      <trkpt lat="40.990386" lon="-72.3553">
        <ele>14.273722</ele>
        <time>2024-09-08T07:15:10.000Z</time>
      </trkpt>
      <trkpt lat="40.990128" lon="-72.355963">
        <ele>14.283107</ele>
        <time>2024-09-08T07:15:16.000Z</time>
      </trkpt>
      <trkpt lat="40.989823" lon="-72.356873">
        <ele>14.196719</ele>
        <time>2024-09-08T07:15:24.000Z</time>
      </trkpt>
      <trkpt lat="40.989812" lon="-72.356916">
        <ele>14.192673</ele>
        <time>2024-09-08T07:15:24.000Z</time>
      </trkpt>
      <trkpt lat="40.98965" lon="-72.357415">
        <ele>14.146907</ele>
        <time>2024-09-08T07:15:29.000Z</time>
      </trkpt>
      <trkpt lat="40.989591" lon="-72.357578">
        <ele>14.136808</ele>
        <time>2024-09-08T07:15:31.000Z</time>
      </trkpt>
      <trkpt lat="40.989301" lon="-72.358552">
        <ele>14.40125</ele>
        <time>2024-09-08T07:15:40.000Z</time>
      </trkpt>
      <trkpt lat="40.989119" lon="-72.359691">
        <ele>14.690446</ele>
        <time>2024-09-08T07:15:50.000Z</time>
      </trkpt>
      <trkpt lat="40.988956" lon="-72.361023">
        <ele>14.366091</ele>
        <time>2024-09-08T07:16:01.000Z</time>
      </trkpt>
      <trkpt lat="40.98884" lon="-72.362233">
        <ele>13.97017</ele>
        <time>2024-09-08T07:16:11.000Z</time>
      </trkpt>
      <trkpt lat="40.988779" lon="-72.362509">
        <ele>13.633311</ele>
        <time>2024-09-08T07:16:13.000Z</time>
      </trkpt>
      <trkpt lat="40.988446" lon="-72.363714">
        <ele>12.164787</ele>
        <time>2024-09-08T07:16:24.000Z</time>
      </trkpt>
      <trkpt lat="40.988275" lon="-72.364352">
        <ele>11.385425</ele>
        <time>2024-09-08T07:16:30.000Z</time>
      </trkpt>
      <trkpt lat="40.987972" lon="-72.365353">
        <ele>10.255114</ele>
        <time>2024-09-08T07:16:39.000Z</time>
      </trkpt>
      <trkpt lat="40.9876" lon="-72.366333">
        <ele>9.105118</ele>
        <time>2024-09-08T07:16:48.000Z</time>
      </trkpt>
      <trkpt lat="40.987251" lon="-72.367276">
        <ele>8.957412</ele>
        <time>2024-09-08T07:16:57.000Z</time>
      </trkpt>
      <trkpt lat="40.986645" lon="-72.369166">
        <ele>9.486635</ele>
        <time>2024-09-08T07:17:14.000Z</time>
      </trkpt>
      <trkpt lat="40.986596" lon="-72.369271">
        <ele>9.533411</ele>
        <time>2024-09-08T07:17:15.000Z</time>
      </trkpt>
      <trkpt lat="40.986243" lon="-72.370255">
        <ele>9.92026</ele>
        <time>2024-09-08T07:17:24.000Z</time>
      </trkpt>
      <trkpt lat="40.985917" lon="-72.371219">
        <ele>10.057542</ele>
        <time>2024-09-08T07:17:33.000Z</time>
      </trkpt>
      <trkpt lat="40.985514" lon="-72.372264">
        <ele>9.535819</ele>
        <time>2024-09-08T07:17:43.000Z</time>
      </trkpt>
      <trkpt lat="40.985337" lon="-72.372679">
        <ele>9.315344</ele>
        <time>2024-09-08T07:17:47.000Z</time>
      </trkpt>
      <trkpt lat="40.98516" lon="-72.372992">
        <ele>9.144699</ele>
        <time>2024-09-08T07:17:50.000Z</time>
      </trkpt>
      <trkpt lat="40.984925" lon="-72.373227">
        <ele>9.204382</ele>
        <time>2024-09-08T07:17:53.000Z</time>
      </trkpt>
      <trkpt lat="40.984694" lon="-72.373384">
        <ele>9.28903</ele>
        <time>2024-09-08T07:17:56.000Z</time>
      </trkpt>
      <trkpt lat="40.984567" lon="-72.373436">
        <ele>9.330996</ele>
        <time>2024-09-08T07:17:57.000Z</time>
      </trkpt>
      <trkpt lat="40.984272" lon="-72.373488">
        <ele>9.431993</ele>
        <time>2024-09-08T07:18:00.000Z</time>
      </trkpt>
      <trkpt lat="40.983903" lon="-72.373462">
        <ele>9.553833</ele>
        <time>2024-09-08T07:18:04.000Z</time>
      </trkpt>
      <trkpt lat="40.983231" lon="-72.373312">
        <ele>9.985637</ele>
        <time>2024-09-08T07:18:12.000Z</time>
      </trkpt>
      <trkpt lat="40.982885" lon="-72.373302">
        <ele>10.417271</ele>
        <time>2024-09-08T07:18:16.000Z</time>
      </trkpt>
      <trkpt lat="40.982589" lon="-72.373346">
        <ele>10.802444</ele>
        <time>2024-09-08T07:18:19.000Z</time>
      </trkpt>
      <trkpt lat="40.982415" lon="-72.373315">
        <ele>11.034944</ele>
        <time>2024-09-08T07:18:21.000Z</time>
      </trkpt>
      <trkpt lat="40.982182" lon="-72.373324">
        <ele>11.338041</ele>
        <time>2024-09-08T07:18:24.000Z</time>
      </trkpt>
      <trkpt lat="40.981795" lon="-72.37336">
        <ele>11.841099</ele>
        <time>2024-09-08T07:18:28.000Z</time>
      </trkpt>
      <trkpt lat="40.981292" lon="-72.373287">
        <ele>12.445353</ele>
        <time>2024-09-08T07:18:34.000Z</time>
      </trkpt>
      <trkpt lat="40.980212" lon="-72.373">
        <ele>13.695655</ele>
        <time>2024-09-08T07:18:46.000Z</time>
      </trkpt>
      <trkpt lat="40.979671" lon="-72.372734">
        <ele>14.3959</ele>
        <time>2024-09-08T07:18:52.000Z</time>
      </trkpt>
      <trkpt lat="40.978868" lon="-72.372279">
        <ele>15.541142</ele>
        <time>2024-09-08T07:19:02.000Z</time>
      </trkpt>
      <trkpt lat="40.978401" lon="-72.371944">
        <ele>16.231143</ele>
        <time>2024-09-08T07:19:08.000Z</time>
      </trkpt>
      <trkpt lat="40.977619" lon="-72.371306">
        <ele>17.542014</ele>
        <time>2024-09-08T07:19:18.000Z</time>
      </trkpt>
      <trkpt lat="40.977551" lon="-72.371249">
        <ele>17.653468</ele>
        <time>2024-09-08T07:19:19.000Z</time>
      </trkpt>
      <trkpt lat="40.977308" lon="-72.371103">
        <ele>18.026975</ele>
        <time>2024-09-08T07:19:22.000Z</time>
      </trkpt>
      <trkpt lat="40.977151" lon="-72.371048">
        <ele>18.257834</ele>
        <time>2024-09-08T07:19:24.000Z</time>
      </trkpt>
      <trkpt lat="40.976613" lon="-72.371012">
        <ele>19.037244</ele>
        <time>2024-09-08T07:19:30.000Z</time>
      </trkpt>
      <trkpt lat="40.976307" lon="-72.370943">
        <ele>19.334422</ele>
        <time>2024-09-08T07:19:33.000Z</time>
      </trkpt>
      <trkpt lat="40.975773" lon="-72.370723">
        <ele>19.891703</ele>
        <time>2024-09-08T07:19:39.000Z</time>
      </trkpt>
      <trkpt lat="40.975297" lon="-72.370604">
        <ele>20.375202</ele>
        <time>2024-09-08T07:19:44.000Z</time>
      </trkpt>
      <trkpt lat="40.975187" lon="-72.370556">
        <ele>20.499503</ele>
        <time>2024-09-08T07:19:45.000Z</time>
      </trkpt>
      <trkpt lat="40.975096" lon="-72.370476">
        <ele>20.60639</ele>
        <time>2024-09-08T07:19:46.000Z</time>
      </trkpt>
      <trkpt lat="40.975007" lon="-72.370339">
        <ele>20.735088</ele>
        <time>2024-09-08T07:19:48.000Z</time>
      </trkpt>
      <trkpt lat="40.974659" lon="-72.369513">
        <ele>21.297963</ele>
        <time>2024-09-08T07:19:56.000Z</time>
      </trkpt>
      <trkpt lat="40.974613" lon="-72.369396">
        <ele>21.374496</ele>
        <time>2024-09-08T07:19:57.000Z</time>
      </trkpt>
      <trkpt lat="40.974168" lon="-72.368645">
        <ele>21.934209</ele>
        <time>2024-09-08T07:20:05.000Z</time>
      </trkpt>
      <trkpt lat="40.973936" lon="-72.368188">
        <ele>22.362037</ele>
        <time>2024-09-08T07:20:10.000Z</time>
      </trkpt>
      <trkpt lat="40.973769" lon="-72.367956">
        <ele>22.879326</ele>
        <time>2024-09-08T07:20:13.000Z</time>
      </trkpt>
      <trkpt lat="40.973548" lon="-72.367731">
        <ele>23.456598</ele>
        <time>2024-09-08T07:20:16.000Z</time>
      </trkpt>
      <trkpt lat="40.973172" lon="-72.367451">
        <ele>24.370261</ele>
        <time>2024-09-08T07:20:21.000Z</time>
      </trkpt>
      <trkpt lat="40.972886" lon="-72.367418">
        <ele>24.994093</ele>
        <time>2024-09-08T07:20:24.000Z</time>
      </trkpt>
      <trkpt lat="40.971962" lon="-72.36749">
        <ele>27.749705</ele>
        <time>2024-09-08T07:20:34.000Z</time>
      </trkpt>
      <trkpt lat="40.971665" lon="-72.367467">
        <ele>28.874442</ele>
        <time>2024-09-08T07:20:37.000Z</time>
      </trkpt>
      <trkpt lat="40.971594" lon="-72.367433">
        <ele>29.169767</ele>
        <time>2024-09-08T07:20:38.000Z</time>
      </trkpt>
      <trkpt lat="40.971451" lon="-72.367425">
        <ele>29.710116</ele>
        <time>2024-09-08T07:20:40.000Z</time>
      </trkpt>
      <trkpt lat="40.971399" lon="-72.36742">
        <ele>29.905842</ele>
        <time>2024-09-08T07:20:41.000Z</time>
      </trkpt>
      <trkpt lat="40.970958" lon="-72.367414">
        <ele>31.629689</ele>
        <time>2024-09-08T07:20:46.000Z</time>
      </trkpt>
      <trkpt lat="40.970295" lon="-72.367174">
        <ele>33.990975</ele>
        <time>2024-09-08T07:20:54.000Z</time>
      </trkpt>
      <trkpt lat="40.969479" lon="-72.367003">
        <ele>36.518035</ele>
        <time>2024-09-08T07:21:03.000Z</time>
      </trkpt>
      <trkpt lat="40.969192" lon="-72.366945">
        <ele>37.405413</ele>
        <time>2024-09-08T07:21:06.000Z</time>
      </trkpt>
      <trkpt lat="40.968334" lon="-72.366611">
        <ele>39.202662</ele>
        <time>2024-09-08T07:21:16.000Z</time>
      </trkpt>
      <trkpt lat="40.967234" lon="-72.366452">
        <ele>40.742289</ele>
        <time>2024-09-08T07:21:28.000Z</time>
      </trkpt>
      <trkpt lat="40.967052" lon="-72.366472">
        <ele>40.954518</ele>
        <time>2024-09-08T07:21:30.000Z</time>
      </trkpt>
      <trkpt lat="40.966656" lon="-72.366636">
        <ele>41.203342</ele>
        <time>2024-09-08T07:21:35.000Z</time>
      </trkpt>
      <trkpt lat="40.965905" lon="-72.366962">
        <ele>41.661017</ele>
        <time>2024-09-08T07:21:44.000Z</time>
      </trkpt>
      <trkpt lat="40.965684" lon="-72.367132">
        <ele>41.816899</ele>
        <time>2024-09-08T07:21:47.000Z</time>
      </trkpt>
      <trkpt lat="40.96559" lon="-72.36724">
        <ele>41.890135</ele>
        <time>2024-09-08T07:21:48.000Z</time>
      </trkpt>
      <trkpt lat="40.965331" lon="-72.367559">
        <ele>42.231849</ele>
        <time>2024-09-08T07:21:52.000Z</time>
      </trkpt>
      <trkpt lat="40.96518" lon="-72.367711">
        <ele>42.47886</ele>
        <time>2024-09-08T07:21:54.000Z</time>
      </trkpt>
      <trkpt lat="40.964854" lon="-72.367831">
        <ele>42.920562</ele>
        <time>2024-09-08T07:21:58.000Z</time>
      </trkpt>
      <trkpt lat="40.963853" lon="-72.368138">
        <ele>44.289517</ele>
        <time>2024-09-08T07:22:09.000Z</time>
      </trkpt>
      <trkpt lat="40.963668" lon="-72.368178">
        <ele>44.817758</ele>
        <time>2024-09-08T07:22:11.000Z</time>
      </trkpt>
      <trkpt lat="40.963372" lon="-72.368153">
        <ele>45.840212</ele>
        <time>2024-09-08T07:22:14.000Z</time>
      </trkpt>
      <trkpt lat="40.963207" lon="-72.368075">
        <ele>46.400564</ele>
        <time>2024-09-08T07:22:16.000Z</time>
      </trkpt>
      <trkpt lat="40.962835" lon="-72.367699">
        <ele>48.049111</ele>
        <time>2024-09-08T07:22:21.000Z</time>
      </trkpt>
      <trkpt lat="40.962726" lon="-72.367605">
        <ele>48.47077</ele>
        <time>2024-09-08T07:22:22.000Z</time>
      </trkpt>
      <trkpt lat="40.962444" lon="-72.3674">
        <ele>49.607751</ele>
        <time>2024-09-08T07:22:26.000Z</time>
      </trkpt>
      <trkpt lat="40.962272" lon="-72.367332">
        <ele>50.20721</ele>
        <time>2024-09-08T07:22:28.000Z</time>
      </trkpt>
      <trkpt lat="40.961938" lon="-72.367317">
        <ele>51.44069</ele>
        <time>2024-09-08T07:22:32.000Z</time>
      </trkpt>
      <trkpt lat="40.961712" lon="-72.367269">
        <ele>52.326419</ele>
        <time>2024-09-08T07:22:35.000Z</time>
      </trkpt>
      <trkpt lat="40.961506" lon="-72.367009">
        <ele>53.412832</ele>
        <time>2024-09-08T07:22:38.000Z</time>
      </trkpt>
      <trkpt lat="40.961425" lon="-72.366869">
        <ele>53.96166</ele>
        <time>2024-09-08T07:22:39.000Z</time>
      </trkpt>
      <trkpt lat="40.961189" lon="-72.366231">
        <ele>56.033208</ele>
        <time>2024-09-08T07:22:45.000Z</time>
      </trkpt>
      <trkpt lat="40.9611" lon="-72.366077">
        <ele>56.60242</ele>
        <time>2024-09-08T07:22:47.000Z</time>
      </trkpt>
      <trkpt lat="40.960606" lon="-72.365484">
        <ele>58.046404</ele>
        <time>2024-09-08T07:22:54.000Z</time>
      </trkpt>
      <trkpt lat="40.960232" lon="-72.365523">
        <ele>58.47907</ele>
        <time>2024-09-08T07:22:58.000Z</time>
      </trkpt>
      <trkpt lat="40.959824" lon="-72.3656">
        <ele>58.986903</ele>
        <time>2024-09-08T07:23:03.000Z</time>
      </trkpt>
      <trkpt lat="40.959122" lon="-72.365721">
        <ele>59.48364</ele>
        <time>2024-09-08T07:23:11.000Z</time>
      </trkpt>
      <trkpt lat="40.958633" lon="-72.365648">
        <ele>58.69977</ele>
        <time>2024-09-08T07:23:16.000Z</time>
      </trkpt>
      <trkpt lat="40.958474" lon="-72.36562">
        <ele>58.436786</ele>
        <time>2024-09-08T07:23:18.000Z</time>
      </trkpt>
      <trkpt lat="40.958352" lon="-72.365635">
        <ele>58.239653</ele>
        <time>2024-09-08T07:23:19.000Z</time>
      </trkpt>
      <trkpt lat="40.958189" lon="-72.365712">
        <ele>57.969356</ele>
        <time>2024-09-08T07:23:21.000Z</time>
      </trkpt>
      <trkpt lat="40.957441" lon="-72.366184">
        <ele>56.614502</ele>
        <time>2024-09-08T07:23:30.000Z</time>
      </trkpt>
      <trkpt lat="40.957261" lon="-72.36627">
        <ele>56.303272</ele>
        <time>2024-09-08T07:23:32.000Z</time>
      </trkpt>
      <trkpt lat="40.956878" lon="-72.366405">
        <ele>55.649631</ele>
        <time>2024-09-08T07:23:36.000Z</time>
      </trkpt>
      <trkpt lat="40.956708" lon="-72.366423">
        <ele>55.367611</ele>
        <time>2024-09-08T07:23:38.000Z</time>
      </trkpt>
      <trkpt lat="40.956199" lon="-72.366256">
        <ele>54.539483</ele>
        <time>2024-09-08T07:23:44.000Z</time>
      </trkpt>
      <trkpt lat="40.956035" lon="-72.366236">
        <ele>54.269722</ele>
        <time>2024-09-08T07:23:46.000Z</time>
      </trkpt>
      <trkpt lat="40.955475" lon="-72.366268">
        <ele>53.511682</ele>
        <time>2024-09-08T07:23:52.000Z</time>
      </trkpt>
      <trkpt lat="40.955168" lon="-72.366324">
        <ele>53.177644</ele>
        <time>2024-09-08T07:23:55.000Z</time>
      </trkpt>
      <trkpt lat="40.954621" lon="-72.366434">
        <ele>52.586373</ele>
        <time>2024-09-08T07:24:01.000Z</time>
      </trkpt>
      <trkpt lat="40.954401" lon="-72.366496">
        <ele>52.342986</ele>
        <time>2024-09-08T07:24:04.000Z</time>
      </trkpt>
      <trkpt lat="40.954307" lon="-72.366517">
        <ele>52.235519</ele>
        <time>2024-09-08T07:24:05.000Z</time>
      </trkpt>
      <trkpt lat="40.95428" lon="-72.366521">
        <ele>52.21702</ele>
        <time>2024-09-08T07:24:05.000Z</time>
      </trkpt>
      <trkpt lat="40.954165" lon="-72.366564">
        <ele>52.086253</ele>
        <time>2024-09-08T07:24:06.000Z</time>
      </trkpt>
      <trkpt lat="40.954011" lon="-72.366636">
        <ele>51.90255</ele>
        <time>2024-09-08T07:24:08.000Z</time>
      </trkpt>
      <trkpt lat="40.953739" lon="-72.366677">
        <ele>51.489674</ele>
        <time>2024-09-08T07:24:11.000Z</time>
      </trkpt>
      <trkpt lat="40.953316" lon="-72.366765">
        <ele>50.873482</ele>
        <time>2024-09-08T07:24:16.000Z</time>
      </trkpt>
      <trkpt lat="40.952964" lon="-72.366811">
        <ele>50.340307</ele>
        <time>2024-09-08T07:24:20.000Z</time>
      </trkpt>
      <trkpt lat="40.95215" lon="-72.366999">
        <ele>49.075912</ele>
        <time>2024-09-08T07:24:29.000Z</time>
      </trkpt>
      <trkpt lat="40.951788" lon="-72.367031">
        <ele>48.479276</ele>
        <time>2024-09-08T07:24:33.000Z</time>
      </trkpt>
      <trkpt lat="40.951607" lon="-72.367029">
        <ele>48.182622</ele>
        <time>2024-09-08T07:24:35.000Z</time>
      </trkpt>
      <trkpt lat="40.951246" lon="-72.366967">
        <ele>47.581518</ele>
        <time>2024-09-08T07:24:39.000Z</time>
      </trkpt>
      <trkpt lat="40.950967" lon="-72.366842">
        <ele>47.111251</ele>
        <time>2024-09-08T07:24:42.000Z</time>
      </trkpt>
      <trkpt lat="40.950782" lon="-72.366751">
        <ele>46.759945</ele>
        <time>2024-09-08T07:24:44.000Z</time>
      </trkpt>
      <trkpt lat="40.950675" lon="-72.366698">
        <ele>46.588582</ele>
        <time>2024-09-08T07:24:45.000Z</time>
      </trkpt>
      <trkpt lat="40.950465" lon="-72.366677">
        <ele>46.248043</ele>
        <time>2024-09-08T07:24:47.000Z</time>
      </trkpt>
      <trkpt lat="40.950205" lon="-72.36665">
        <ele>45.83502</ele>
        <time>2024-09-08T07:24:50.000Z</time>
      </trkpt>
      <trkpt lat="40.949916" lon="-72.366612">
        <ele>45.346489</ele>
        <time>2024-09-08T07:24:53.000Z</time>
      </trkpt>
      <trkpt lat="40.949789" lon="-72.366636">
        <ele>45.17081</ele>
        <time>2024-09-08T07:24:54.000Z</time>
      </trkpt>
      <trkpt lat="40.949741" lon="-72.366628">
        <ele>45.070141</ele>
        <time>2024-09-08T07:24:55.000Z</time>
      </trkpt>
      <trkpt lat="40.949456" lon="-72.366663">
        <ele>44.631714</ele>
        <time>2024-09-08T07:24:58.000Z</time>
      </trkpt>
      <trkpt lat="40.949159" lon="-72.366712">
        <ele>44.140826</ele>
        <time>2024-09-08T07:25:01.000Z</time>
      </trkpt>
      <trkpt lat="40.949035" lon="-72.366737">
        <ele>43.944886</ele>
        <time>2024-09-08T07:25:02.000Z</time>
      </trkpt>
      <trkpt lat="40.948741" lon="-72.366775">
        <ele>43.463372</ele>
        <time>2024-09-08T07:25:05.000Z</time>
      </trkpt>
      <trkpt lat="40.948296" lon="-72.36679">
        <ele>42.585464</ele>
        <time>2024-09-08T07:25:10.000Z</time>
      </trkpt>
      <trkpt lat="40.94789" lon="-72.366763">
        <ele>41.786399</ele>
        <time>2024-09-08T07:25:15.000Z</time>
      </trkpt>
      <trkpt lat="40.94785" lon="-72.366751">
        <ele>41.675483</ele>
        <time>2024-09-08T07:25:15.000Z</time>
      </trkpt>
      <trkpt lat="40.94727" lon="-72.366574">
        <ele>40.473762</ele>
        <time>2024-09-08T07:25:22.000Z</time>
      </trkpt>
      <trkpt lat="40.94719" lon="-72.366553">
        <ele>40.288036</ele>
        <time>2024-09-08T07:25:23.000Z</time>
      </trkpt>
      <trkpt lat="40.946972" lon="-72.366495">
        <ele>39.845753</ele>
        <time>2024-09-08T07:25:25.000Z</time>
      </trkpt>
      <trkpt lat="40.946581" lon="-72.366477">
        <ele>38.99811</ele>
        <time>2024-09-08T07:25:29.000Z</time>
      </trkpt>
      <trkpt lat="40.946103" lon="-72.366498">
        <ele>37.975305</ele>
        <time>2024-09-08T07:25:34.000Z</time>
      </trkpt>
      <trkpt lat="40.945839" lon="-72.366509">
        <ele>37.394908</ele>
        <time>2024-09-08T07:25:37.000Z</time>
      </trkpt>
      <trkpt lat="40.944937" lon="-72.366687">
        <ele>35.297089</ele>
        <time>2024-09-08T07:25:47.000Z</time>
      </trkpt>
      <trkpt lat="40.944629" lon="-72.366739">
        <ele>34.524072</ele>
        <time>2024-09-08T07:25:50.000Z</time>
      </trkpt>
      <trkpt lat="40.943433" lon="-72.366836">
        <ele>31.467365</ele>
        <time>2024-09-08T07:26:03.000Z</time>
      </trkpt>
      <trkpt lat="40.942565" lon="-72.366925">
        <ele>28.988451</ele>
        <time>2024-09-08T07:26:13.000Z</time>
      </trkpt>
      <trkpt lat="40.942166" lon="-72.366947">
        <ele>27.786362</ele>
        <time>2024-09-08T07:26:17.000Z</time>
      </trkpt>
      <trkpt lat="40.941097" lon="-72.366736">
        <ele>25.173055</ele>
        <time>2024-09-08T07:26:29.000Z</time>
      </trkpt>
      <trkpt lat="40.939963" lon="-72.366507">
        <ele>23.287298</ele>
        <time>2024-09-08T07:26:42.000Z</time>
      </trkpt>
      <trkpt lat="40.939728" lon="-72.367198">
        <ele>22.817828</ele>
        <time>2024-09-08T07:26:48.000Z</time>
      </trkpt>
      <trkpt lat="40.939181" lon="-72.367907">
        <ele>22.555321</ele>
        <time>2024-09-08T07:26:57.000Z</time>
      </trkpt>
      <trkpt lat="40.939004" lon="-72.368082">
        <ele>22.481933</ele>
        <time>2024-09-08T07:26:59.000Z</time>
      </trkpt>
      <trkpt lat="40.938616" lon="-72.368325">
        <ele>22.33221</ele>
        <time>2024-09-08T07:27:04.000Z</time>
      </trkpt>
      <trkpt lat="40.937682" lon="-72.368808">
        <ele>21.96346</ele>
        <time>2024-09-08T07:27:15.000Z</time>
      </trkpt>
      <trkpt lat="40.936147" lon="-72.3697">
        <ele>21.316183</ele>
        <time>2024-09-08T07:27:34.000Z</time>
      </trkpt>
      <trkpt lat="40.935827" lon="-72.369865">
        <ele>21.182415</ele>
        <time>2024-09-08T07:27:38.000Z</time>
      </trkpt>
      <trkpt lat="40.935541" lon="-72.370042">
        <ele>21.05688</ele>
        <time>2024-09-08T07:27:42.000Z</time>
      </trkpt>
      <trkpt lat="40.934802" lon="-72.370596">
        <ele>21.031305</ele>
        <time>2024-09-08T07:27:51.000Z</time>
      </trkpt>
      <trkpt lat="40.93459" lon="-72.370743">
        <ele>21.065982</ele>
        <time>2024-09-08T07:27:54.000Z</time>
      </trkpt>
      <trkpt lat="40.933902" lon="-72.370948">
        <ele>21.172735</ele>
        <time>2024-09-08T07:28:02.000Z</time>
      </trkpt>
      <trkpt lat="40.933771" lon="-72.371057">
        <ele>21.197581</ele>
        <time>2024-09-08T07:28:04.000Z</time>
      </trkpt>
      <trkpt lat="40.934004" lon="-72.371224">
        <ele>21.468222</ele>
        <time>2024-09-08T07:28:07.000Z</time>
      </trkpt>
      <trkpt lat="40.934097" lon="-72.371328">
        <ele>21.659906</ele>
        <time>2024-09-08T07:28:08.000Z</time>
      </trkpt>
      <trkpt lat="40.934149" lon="-72.371461">
        <ele>21.846826</ele>
        <time>2024-09-08T07:28:09.000Z</time>
      </trkpt>
      <trkpt lat="40.934216" lon="-72.372199">
        <ele>22.773455</ele>
        <time>2024-09-08T07:28:15.000Z</time>
      </trkpt>
      <trkpt lat="40.934341" lon="-72.372758">
        <ele>23.495279</ele>
        <time>2024-09-08T07:28:20.000Z</time>
      </trkpt>
      <trkpt lat="40.93443" lon="-72.373061">
        <ele>23.911564</ele>
        <time>2024-09-08T07:28:23.000Z</time>
      </trkpt>
      <trkpt lat="40.934568" lon="-72.373399">
        <ele>24.476569</ele>
        <time>2024-09-08T07:28:26.000Z</time>
      </trkpt>
      <trkpt lat="40.934695" lon="-72.373576">
        <ele>24.958721</ele>
        <time>2024-09-08T07:28:28.000Z</time>
      </trkpt>
      <trkpt lat="40.935847" lon="-72.37453">
        <ele>28.325184</ele>
        <time>2024-09-08T07:28:43.000Z</time>
      </trkpt>
      <trkpt lat="40.935991" lon="-72.374743">
        <ele>28.847151</ele>
        <time>2024-09-08T07:28:45.000Z</time>
      </trkpt>
      <trkpt lat="40.936229" lon="-72.375196">
        <ele>29.649466</ele>
        <time>2024-09-08T07:28:50.000Z</time>
      </trkpt>
      <trkpt lat="40.936366" lon="-72.375622">
        <ele>30.348723</ele>
        <time>2024-09-08T07:28:54.000Z</time>
      </trkpt>
      <trkpt lat="40.936807" lon="-72.376563">
        <ele>32.002505</ele>
        <time>2024-09-08T07:29:03.000Z</time>
      </trkpt>
      <trkpt lat="40.936921" lon="-72.376799">
        <ele>32.468046</ele>
        <time>2024-09-08T07:29:05.000Z</time>
      </trkpt>
      <trkpt lat="40.937018" lon="-72.377012">
        <ele>32.993356</ele>
        <time>2024-09-08T07:29:07.000Z</time>
      </trkpt>
      <trkpt lat="40.937307" lon="-72.377866">
        <ele>34.929492</ele>
        <time>2024-09-08T07:29:15.000Z</time>
      </trkpt>
      <trkpt lat="40.93722" lon="-72.377878">
        <ele>35.19166</ele>
        <time>2024-09-08T07:29:16.000Z</time>
      </trkpt>
      <trkpt lat="40.937039" lon="-72.378367">
        <ele>36.275536</ele>
        <time>2024-09-08T07:29:21.000Z</time>
      </trkpt>
      <trkpt lat="40.936999" lon="-72.378507">
        <ele>36.592093</ele>
        <time>2024-09-08T07:29:22.000Z</time>
      </trkpt>
      <trkpt lat="40.936758" lon="-72.379173">
        <ele>38.783746</ele>
        <time>2024-09-08T07:29:28.000Z</time>
      </trkpt>
      <trkpt lat="40.936647" lon="-72.379494">
        <ele>40.034153</ele>
        <time>2024-09-08T07:29:31.000Z</time>
      </trkpt>
      <trkpt lat="40.93638" lon="-72.381058">
        <ele>45.503304</ele>
        <time>2024-09-08T07:29:44.000Z</time>
      </trkpt>
      <trkpt lat="40.936277" lon="-72.381901">
        <ele>47.411165</ele>
        <time>2024-09-08T07:29:51.000Z</time>
      </trkpt>
      <trkpt lat="40.936251" lon="-72.382723">
        <ele>49.280062</ele>
        <time>2024-09-08T07:29:58.000Z</time>
      </trkpt>
      <trkpt lat="40.936218" lon="-72.383244">
        <ele>50.482196</ele>
        <time>2024-09-08T07:30:02.000Z</time>
      </trkpt>
      <trkpt lat="40.936051" lon="-72.383862">
        <ele>51.685168</ele>
        <time>2024-09-08T07:30:08.000Z</time>
      </trkpt>
      <trkpt lat="40.935811" lon="-72.384437">
        <ele>52.763421</ele>
        <time>2024-09-08T07:30:14.000Z</time>
      </trkpt>
      <trkpt lat="40.935627" lon="-72.384759">
        <ele>53.455332</ele>
        <time>2024-09-08T07:30:17.000Z</time>
      </trkpt>
      <trkpt lat="40.935407" lon="-72.385085">
        <ele>54.202255</ele>
        <time>2024-09-08T07:30:21.000Z</time>
      </trkpt>
      <trkpt lat="40.935304" lon="-72.385339">
        <ele>54.707067</ele>
        <time>2024-09-08T07:30:23.000Z</time>
      </trkpt>
      <trkpt lat="40.935175" lon="-72.385723">
        <ele>54.835937</ele>
        <time>2024-09-08T07:30:27.000Z</time>
      </trkpt>
      <trkpt lat="40.935003" lon="-72.386655">
        <ele>54.921126</ele>
        <time>2024-09-08T07:30:35.000Z</time>
      </trkpt>
      <trkpt lat="40.934978" lon="-72.387129">
        <ele>54.964807</ele>
        <time>2024-09-08T07:30:39.000Z</time>
      </trkpt>
      <trkpt lat="40.935003" lon="-72.387488">
        <ele>54.996692</ele>
        <time>2024-09-08T07:30:42.000Z</time>
      </trkpt>
      <trkpt lat="40.935047" lon="-72.387967">
        <ele>54.134903</ele>
        <time>2024-09-08T07:30:46.000Z</time>
      </trkpt>
      <trkpt lat="40.935134" lon="-72.388872">
        <ele>50.818896</ele>
        <time>2024-09-08T07:30:54.000Z</time>
      </trkpt>
      <trkpt lat="40.935209" lon="-72.390259">
        <ele>45.533121</ele>
        <time>2024-09-08T07:31:06.000Z</time>
      </trkpt>
      <trkpt lat="40.935504" lon="-72.390849">
        <ele>42.24464</ele>
        <time>2024-09-08T07:31:12.000Z</time>
      </trkpt>
      <trkpt lat="40.935584" lon="-72.391152">
        <ele>40.70343</ele>
        <time>2024-09-08T07:31:15.000Z</time>
      </trkpt>
      <trkpt lat="40.935585" lon="-72.391156">
        <ele>40.683304</ele>
        <time>2024-09-08T07:31:15.000Z</time>
      </trkpt>
      <trkpt lat="40.935544" lon="-72.391472">
        <ele>39.126562</ele>
        <time>2024-09-08T07:31:18.000Z</time>
      </trkpt>
      <trkpt lat="40.935509" lon="-72.391603">
        <ele>38.444795</ele>
        <time>2024-09-08T07:31:19.000Z</time>
      </trkpt>
      <trkpt lat="40.935495" lon="-72.391645">
        <ele>38.281689</ele>
        <time>2024-09-08T07:31:19.000Z</time>
      </trkpt>
      <trkpt lat="40.935385" lon="-72.392041">
        <ele>36.207599</ele>
        <time>2024-09-08T07:31:23.000Z</time>
      </trkpt>
      <trkpt lat="40.935328" lon="-72.392636">
        <ele>33.791883</ele>
        <time>2024-09-08T07:31:28.000Z</time>
      </trkpt>
      <trkpt lat="40.935258" lon="-72.393135">
        <ele>31.946902</ele>
        <time>2024-09-08T07:31:32.000Z</time>
      </trkpt>
      <trkpt lat="40.935258" lon="-72.393348">
        <ele>31.120015</ele>
        <time>2024-09-08T07:31:34.000Z</time>
      </trkpt>
      <trkpt lat="40.935268" lon="-72.393468">
        <ele>30.701448</ele>
        <time>2024-09-08T07:31:35.000Z</time>
      </trkpt>
      <trkpt lat="40.935253" lon="-72.393647">
        <ele>30.064222</ele>
        <time>2024-09-08T07:31:37.000Z</time>
      </trkpt>
      <trkpt lat="40.935206" lon="-72.393895">
        <ele>29.081706</ele>
        <time>2024-09-08T07:31:39.000Z</time>
      </trkpt>
      <trkpt lat="40.935063" lon="-72.394288">
        <ele>27.553676</ele>
        <time>2024-09-08T07:31:43.000Z</time>
      </trkpt>
      <trkpt lat="40.934986" lon="-72.39471">
        <ele>26.04709</ele>
        <time>2024-09-08T07:31:47.000Z</time>
      </trkpt>
      <trkpt lat="40.934984" lon="-72.395707">
        <ele>23.347091</ele>
        <time>2024-09-08T07:31:55.000Z</time>
      </trkpt>
      <trkpt lat="40.935037" lon="-72.396014">
        <ele>22.480159</ele>
        <time>2024-09-08T07:31:58.000Z</time>
      </trkpt>
      <trkpt lat="40.935109" lon="-72.39635">
        <ele>21.570269</ele>
        <time>2024-09-08T07:32:01.000Z</time>
      </trkpt>
      <trkpt lat="40.935313" lon="-72.396797">
        <ele>20.158596</ele>
        <time>2024-09-08T07:32:05.000Z</time>
      </trkpt>
      <trkpt lat="40.935372" lon="-72.397249">
        <ele>19.254965</ele>
        <time>2024-09-08T07:32:09.000Z</time>
      </trkpt>
      <trkpt lat="40.935399" lon="-72.397838">
        <ele>18.27049</ele>
        <time>2024-09-08T07:32:14.000Z</time>
      </trkpt>
      <trkpt lat="40.935347" lon="-72.398645">
        <ele>16.869735</ele>
        <time>2024-09-08T07:32:21.000Z</time>
      </trkpt>
      <trkpt lat="40.93437" lon="-72.398796">
        <ele>15.799697</ele>
        <time>2024-09-08T07:32:32.000Z</time>
      </trkpt>
      <trkpt lat="40.93424" lon="-72.398826">
        <ele>15.796567</ele>
        <time>2024-09-08T07:32:33.000Z</time>
      </trkpt>
      <trkpt lat="40.934068" lon="-72.398939">
        <ele>15.791628</ele>
        <time>2024-09-08T07:32:35.000Z</time>
      </trkpt>
      <trkpt lat="40.933833" lon="-72.399067">
        <ele>15.785517</ele>
        <time>2024-09-08T07:32:38.000Z</time>
      </trkpt>
      <trkpt lat="40.933657" lon="-72.399162">
        <ele>15.78054</ele>
        <time>2024-09-08T07:32:40.000Z</time>
      </trkpt>
      <trkpt lat="40.933234" lon="-72.399398">
        <ele>15.769061</ele>
        <time>2024-09-08T07:32:45.000Z</time>
      </trkpt>
      <trkpt lat="40.933066" lon="-72.399451">
        <ele>15.943435</ele>
        <time>2024-09-08T07:32:47.000Z</time>
      </trkpt>
      <trkpt lat="40.932892" lon="-72.399472">
        <ele>16.199318</ele>
        <time>2024-09-08T07:32:49.000Z</time>
      </trkpt>
      <trkpt lat="40.932276" lon="-72.399394">
        <ele>17.084359</ele>
        <time>2024-09-08T07:32:56.000Z</time>
      </trkpt>
      <trkpt lat="40.9319" lon="-72.399487">
        <ele>17.630016</ele>
        <time>2024-09-08T07:33:00.000Z</time>
      </trkpt>
      <trkpt lat="40.931314" lon="-72.39983">
        <ele>18.444781</ele>
        <time>2024-09-08T07:33:07.000Z</time>
      </trkpt>
      <trkpt lat="40.931044" lon="-72.400014">
        <ele>18.68448</ele>
        <time>2024-09-08T07:33:10.000Z</time>
      </trkpt>
      <trkpt lat="40.930792" lon="-72.400362">
        <ele>18.954007</ele>
        <time>2024-09-08T07:33:14.000Z</time>
      </trkpt>
      <trkpt lat="40.930743" lon="-72.400478">
        <ele>19.038212</ele>
        <time>2024-09-08T07:33:15.000Z</time>
      </trkpt>
      <trkpt lat="40.930494" lon="-72.401084">
        <ele>19.431801</ele>
        <time>2024-09-08T07:33:21.000Z</time>
      </trkpt>
      <trkpt lat="40.930433" lon="-72.401239">
        <ele>19.533162</ele>
        <time>2024-09-08T07:33:22.000Z</time>
      </trkpt>
      <trkpt lat="40.930183" lon="-72.401682">
        <ele>19.669034</ele>
        <time>2024-09-08T07:33:27.000Z</time>
      </trkpt>
      <trkpt lat="40.930103" lon="-72.401812">
        <ele>19.63158</ele>
        <time>2024-09-08T07:33:28.000Z</time>
      </trkpt>
      <trkpt lat="40.929515" lon="-72.402459">
        <ele>19.426437</ele>
        <time>2024-09-08T07:33:37.000Z</time>
      </trkpt>
      <trkpt lat="40.929201" lon="-72.402765">
        <ele>19.319001</ele>
        <time>2024-09-08T07:33:41.000Z</time>
      </trkpt>
      <trkpt lat="40.928953" lon="-72.402936">
        <ele>19.243876</ele>
        <time>2024-09-08T07:33:44.000Z</time>
      </trkpt>
      <trkpt lat="40.927892" lon="-72.403471">
        <ele>18.858637</ele>
        <time>2024-09-08T07:33:57.000Z</time>
      </trkpt>
      <trkpt lat="40.927398" lon="-72.403886">
        <ele>18.658242</ele>
        <time>2024-09-08T07:34:04.000Z</time>
      </trkpt>
      <trkpt lat="40.926987" lon="-72.404283">
        <ele>18.721741</ele>
        <time>2024-09-08T07:34:10.000Z</time>
      </trkpt>
      <trkpt lat="40.926693" lon="-72.404512">
        <ele>18.822702</ele>
        <time>2024-09-08T07:34:14.000Z</time>
      </trkpt>
      <trkpt lat="40.926217" lon="-72.404653">
        <ele>18.966974</ele>
        <time>2024-09-08T07:34:19.000Z</time>
      </trkpt>
      <trkpt lat="40.92593" lon="-72.404669">
        <ele>19.053791</ele>
        <time>2024-09-08T07:34:22.000Z</time>
      </trkpt>
      <trkpt lat="40.925588" lon="-72.404586">
        <ele>19.179268</ele>
        <time>2024-09-08T07:34:26.000Z</time>
      </trkpt>
      <trkpt lat="40.925007" lon="-72.404325">
        <ele>19.603033</ele>
        <time>2024-09-08T07:34:33.000Z</time>
      </trkpt>
      <trkpt lat="40.92425" lon="-72.403933">
        <ele>20.177428</ele>
        <time>2024-09-08T07:34:42.000Z</time>
      </trkpt>
      <trkpt lat="40.923119" lon="-72.403364">
        <ele>20.944191</ele>
        <time>2024-09-08T07:34:55.000Z</time>
      </trkpt>
      <trkpt lat="40.922596" lon="-72.402908">
        <ele>21.323394</ele>
        <time>2024-09-08T07:35:02.000Z</time>
      </trkpt>
      <trkpt lat="40.922363" lon="-72.40279">
        <ele>21.473505</ele>
        <time>2024-09-08T07:35:05.000Z</time>
      </trkpt>
      <trkpt lat="40.921221" lon="-72.402981">
        <ele>21.853536</ele>
        <time>2024-09-08T07:35:18.000Z</time>
      </trkpt>
      <trkpt lat="40.920165" lon="-72.403333">
        <ele>21.861845</ele>
        <time>2024-09-08T07:35:30.000Z</time>
      </trkpt>
      <trkpt lat="40.919724" lon="-72.403349">
        <ele>21.630686</ele>
        <time>2024-09-08T07:35:35.000Z</time>
      </trkpt>
      <trkpt lat="40.919585" lon="-72.403305">
        <ele>21.561198</ele>
        <time>2024-09-08T07:35:37.000Z</time>
      </trkpt>
      <trkpt lat="40.918899" lon="-72.403022">
        <ele>21.172724</ele>
        <time>2024-09-08T07:35:45.000Z</time>
      </trkpt>
      <trkpt lat="40.918536" lon="-72.402877">
        <ele>20.980501</ele>
        <time>2024-09-08T07:35:49.000Z</time>
      </trkpt>
      <trkpt lat="40.91802" lon="-72.40278">
        <ele>20.710864</ele>
        <time>2024-09-08T07:35:55.000Z</time>
      </trkpt>
      <trkpt lat="40.917762" lon="-72.402757">
        <ele>20.579258</ele>
        <time>2024-09-08T07:35:58.000Z</time>
      </trkpt>
      <trkpt lat="40.91736" lon="-72.402781">
        <ele>20.375739</ele>
        <time>2024-09-08T07:36:02.000Z</time>
      </trkpt>
      <trkpt lat="40.917346" lon="-72.402687">
        <ele>20.339285</ele>
        <time>2024-09-08T07:36:03.000Z</time>
      </trkpt>
      <trkpt lat="40.917364" lon="-72.402505">
        <ele>20.269235</ele>
        <time>2024-09-08T07:36:05.000Z</time>
      </trkpt>
      <trkpt lat="40.917803" lon="-72.402068">
        <ele>20.904596</ele>
        <time>2024-09-08T07:36:11.000Z</time>
      </trkpt>
      <trkpt lat="40.918145" lon="-72.401649">
        <ele>21.688212</ele>
        <time>2024-09-08T07:36:16.000Z</time>
      </trkpt>
      <trkpt lat="40.918468" lon="-72.401327">
        <ele>22.408723</ele>
        <time>2024-09-08T07:36:20.000Z</time>
      </trkpt>
      <trkpt lat="40.918797" lon="-72.400949">
        <ele>23.133689</ele>
        <time>2024-09-08T07:36:25.000Z</time>
      </trkpt>
      <trkpt lat="40.918835" lon="-72.400848">
        <ele>23.311481</ele>
        <time>2024-09-08T07:36:26.000Z</time>
      </trkpt>
      <trkpt lat="40.918849" lon="-72.400619">
        <ele>24.08949</ele>
        <time>2024-09-08T07:36:28.000Z</time>
      </trkpt>
      <trkpt lat="40.918792" lon="-72.400461">
        <ele>24.681425</ele>
        <time>2024-09-08T07:36:29.000Z</time>
      </trkpt>
      <trkpt lat="40.918409" lon="-72.400274">
        <ele>26.557783</ele>
        <time>2024-09-08T07:36:34.000Z</time>
      </trkpt>
      <trkpt lat="40.918307" lon="-72.400181">
        <ele>27.163226</ele>
        <time>2024-09-08T07:36:35.000Z</time>
      </trkpt>
      <trkpt lat="40.918183" lon="-72.399906">
        <ele>28.232844</ele>
        <time>2024-09-08T07:36:38.000Z</time>
      </trkpt>
      <trkpt lat="40.91819" lon="-72.399768">
        <ele>28.701525</ele>
        <time>2024-09-08T07:36:39.000Z</time>
      </trkpt>
      <trkpt lat="40.918207" lon="-72.399057">
        <ele>31.147507</ele>
        <time>2024-09-08T07:36:45.000Z</time>
      </trkpt>
      <trkpt lat="40.918291" lon="-72.398246">
        <ele>33.463555</ele>
        <time>2024-09-08T07:36:52.000Z</time>
      </trkpt>
      <trkpt lat="40.918285" lon="-72.397939">
        <ele>34.302487</ele>
        <time>2024-09-08T07:36:55.000Z</time>
      </trkpt>
      <trkpt lat="40.91814" lon="-72.397082">
        <ele>36.722365</ele>
        <time>2024-09-08T07:37:02.000Z</time>
      </trkpt>
      <trkpt lat="40.918062" lon="-72.39698">
        <ele>37.181332</ele>
        <time>2024-09-08T07:37:03.000Z</time>
      </trkpt>
      <trkpt lat="40.91795" lon="-72.396899">
        <ele>37.594183</ele>
        <time>2024-09-08T07:37:04.000Z</time>
      </trkpt>
      <trkpt lat="40.917627" lon="-72.396761">
        <ele>37.909342</ele>
        <time>2024-09-08T07:37:08.000Z</time>
      </trkpt>
      <trkpt lat="40.91711" lon="-72.396443">
        <ele>37.562102</ele>
        <time>2024-09-08T07:37:14.000Z</time>
      </trkpt>
      <trkpt lat="40.91692" lon="-72.396324">
        <ele>37.426599</ele>
        <time>2024-09-08T07:37:16.000Z</time>
      </trkpt>
      <trkpt lat="40.916297" lon="-72.395926">
        <ele>36.993276</ele>
        <time>2024-09-08T07:37:24.000Z</time>
      </trkpt>
      <trkpt lat="40.916223" lon="-72.395822">
        <ele>36.92067</ele>
        <time>2024-09-08T07:37:25.000Z</time>
      </trkpt>
      <trkpt lat="40.915994" lon="-72.395338">
        <ele>36.481112</ele>
        <time>2024-09-08T07:37:30.000Z</time>
      </trkpt>
      <trkpt lat="40.915795" lon="-72.394947">
        <ele>36.102932</ele>
        <time>2024-09-08T07:37:34.000Z</time>
      </trkpt>
      <trkpt lat="40.915469" lon="-72.394165">
        <ele>35.396829</ele>
        <time>2024-09-08T07:37:42.000Z</time>
      </trkpt>
      <trkpt lat="40.915113" lon="-72.393582">
        <ele>34.703053</ele>
        <time>2024-09-08T07:37:48.000Z</time>
      </trkpt>
      <trkpt lat="40.914921" lon="-72.393258">
        <ele>34.212484</ele>
        <time>2024-09-08T07:37:51.000Z</time>
      </trkpt>
      <trkpt lat="40.914882" lon="-72.393202">
        <ele>34.127777</ele>
        <time>2024-09-08T07:37:52.000Z</time>
      </trkpt>
      <trkpt lat="40.914743" lon="-72.392873">
        <ele>33.702575</ele>
        <time>2024-09-08T07:37:55.000Z</time>
      </trkpt>
      <trkpt lat="40.914674" lon="-72.392545">
        <ele>33.298461</ele>
        <time>2024-09-08T07:37:58.000Z</time>
      </trkpt>
      <trkpt lat="40.914637" lon="-72.392133">
        <ele>32.820243</ele>
        <time>2024-09-08T07:38:01.000Z</time>
      </trkpt>
      <trkpt lat="40.914554" lon="-72.391105">
        <ele>31.473532</ele>
        <time>2024-09-08T07:38:10.000Z</time>
      </trkpt>
      <trkpt lat="40.914544" lon="-72.390567">
        <ele>30.735206</ele>
        <time>2024-09-08T07:38:15.000Z</time>
      </trkpt>
      <trkpt lat="40.914571" lon="-72.390305">
        <ele>30.351709</ele>
        <time>2024-09-08T07:38:17.000Z</time>
      </trkpt>
      <trkpt lat="40.914597" lon="-72.390148">
        <ele>30.122082</ele>
        <time>2024-09-08T07:38:18.000Z</time>
      </trkpt>
      <trkpt lat="40.914619" lon="-72.389967">
        <ele>29.871491</ele>
        <time>2024-09-08T07:38:20.000Z</time>
      </trkpt>
      <trkpt lat="40.914742" lon="-72.389314">
        <ele>28.928185</ele>
        <time>2024-09-08T07:38:26.000Z</time>
      </trkpt>
      <trkpt lat="40.915094" lon="-72.387336">
        <ele>26.533118</ele>
        <time>2024-09-08T07:38:43.000Z</time>
      </trkpt>
      <trkpt lat="40.915145" lon="-72.386982">
        <ele>26.091963</ele>
        <time>2024-09-08T07:38:46.000Z</time>
      </trkpt>
      <trkpt lat="40.915324" lon="-72.385927">
        <ele>24.309926</ele>
        <time>2024-09-08T07:38:55.000Z</time>
      </trkpt>
      <trkpt lat="40.915338" lon="-72.385869">
        <ele>24.2067</ele>
        <time>2024-09-08T07:38:56.000Z</time>
      </trkpt>
      <trkpt lat="40.915491" lon="-72.385467">
        <ele>23.465228</ele>
        <time>2024-09-08T07:39:00.000Z</time>
      </trkpt>
      <trkpt lat="40.915588" lon="-72.385269">
        <ele>23.093312</ele>
        <time>2024-09-08T07:39:02.000Z</time>
      </trkpt>
      <trkpt lat="40.91606" lon="-72.384551">
        <ele>21.319689</ele>
        <time>2024-09-08T07:39:10.000Z</time>
      </trkpt>
      <trkpt lat="40.916186" lon="-72.384311">
        <ele>20.73893</ele>
        <time>2024-09-08T07:39:12.000Z</time>
      </trkpt>
      <trkpt lat="40.916242" lon="-72.384058">
        <ele>20.17294</ele>
        <time>2024-09-08T07:39:14.000Z</time>
      </trkpt>
      <trkpt lat="40.916259" lon="-72.38369">
        <ele>19.430731</ele>
        <time>2024-09-08T07:39:17.000Z</time>
      </trkpt>
      <trkpt lat="40.916246" lon="-72.38324">
        <ele>18.513044</ele>
        <time>2024-09-08T07:39:21.000Z</time>
      </trkpt>
      <trkpt lat="40.916281" lon="-72.382982">
        <ele>17.974729</ele>
        <time>2024-09-08T07:39:23.000Z</time>
      </trkpt>
      <trkpt lat="40.916328" lon="-72.382839">
        <ele>17.645884</ele>
        <time>2024-09-08T07:39:24.000Z</time>
      </trkpt>
      <trkpt lat="40.916507" lon="-72.382191">
        <ele>16.336493</ele>
        <time>2024-09-08T07:39:30.000Z</time>
      </trkpt>
      <trkpt lat="40.916818" lon="-72.381408">
        <ele>14.699497</ele>
        <time>2024-09-08T07:39:37.000Z</time>
      </trkpt>
      <trkpt lat="40.917233" lon="-72.380598">
        <ele>12.908445</ele>
        <time>2024-09-08T07:39:45.000Z</time>
      </trkpt>
      <trkpt lat="40.917406" lon="-72.380287">
        <ele>12.731531</ele>
        <time>2024-09-08T07:39:48.000Z</time>
      </trkpt>
      <trkpt lat="40.917834" lon="-72.379994">
        <ele>12.424209</ele>
        <time>2024-09-08T07:39:53.000Z</time>
      </trkpt>
      <trkpt lat="40.917958" lon="-72.379909">
        <ele>12.336968</ele>
        <time>2024-09-08T07:39:55.000Z</time>
      </trkpt>
      <trkpt lat="40.918215" lon="-72.379754">
        <ele>12.163108</ele>
        <time>2024-09-08T07:39:58.000Z</time>
      </trkpt>
      <trkpt lat="40.918651" lon="-72.379415">
        <ele>11.853263</ele>
        <time>2024-09-08T07:40:04.000Z</time>
      </trkpt>
      <trkpt lat="40.918801" lon="-72.379316">
        <ele>11.896267</ele>
        <time>2024-09-08T07:40:06.000Z</time>
      </trkpt>
      <trkpt lat="40.9191" lon="-72.379263">
        <ele>12.302618</ele>
        <time>2024-09-08T07:40:09.000Z</time>
      </trkpt>
      <trkpt lat="40.919754" lon="-72.379261">
        <ele>13.133276</ele>
        <time>2024-09-08T07:40:16.000Z</time>
      </trkpt>
      <trkpt lat="40.919844" lon="-72.379261">
        <ele>13.25465</ele>
        <time>2024-09-08T07:40:17.000Z</time>
      </trkpt>
      <trkpt lat="40.920085" lon="-72.379281">
        <ele>13.55417</ele>
        <time>2024-09-08T07:40:20.000Z</time>
      </trkpt>
      <trkpt lat="40.920162" lon="-72.379244">
        <ele>13.669883</ele>
        <time>2024-09-08T07:40:21.000Z</time>
      </trkpt>
      <trkpt lat="40.920328" lon="-72.379116">
        <ele>13.914453</ele>
        <time>2024-09-08T07:40:23.000Z</time>
      </trkpt>
      <trkpt lat="40.920424" lon="-72.378995">
        <ele>14.075129</ele>
        <time>2024-09-08T07:40:24.000Z</time>
      </trkpt>
      <trkpt lat="40.920533" lon="-72.378777">
        <ele>14.35457</ele>
        <time>2024-09-08T07:40:26.000Z</time>
      </trkpt>
      <trkpt lat="40.920621" lon="-72.378429">
        <ele>14.78063</ele>
        <time>2024-09-08T07:40:29.000Z</time>
      </trkpt>
      <trkpt lat="40.920823" lon="-72.377953">
        <ele>15.371372</ele>
        <time>2024-09-08T07:40:34.000Z</time>
      </trkpt>
      <trkpt lat="40.921009" lon="-72.377301">
        <ele>16.12934</ele>
        <time>2024-09-08T07:40:40.000Z</time>
      </trkpt>
      <trkpt lat="40.921066" lon="-72.37667">
        <ele>16.799587</ele>
        <time>2024-09-08T07:40:45.000Z</time>
      </trkpt>
      <trkpt lat="40.921134" lon="-72.376539">
        <ele>16.929364</ele>
        <time>2024-09-08T07:40:46.000Z</time>
      </trkpt>
      <trkpt lat="40.921174" lon="-72.376439">
        <ele>17.022544</ele>
        <time>2024-09-08T07:40:47.000Z</time>
      </trkpt>
      <trkpt lat="40.921341" lon="-72.376273">
        <ele>17.269259</ele>
        <time>2024-09-08T07:40:49.000Z</time>
      </trkpt>
      <trkpt lat="40.92211" lon="-72.376127">
        <ele>18.119998</ele>
        <time>2024-09-08T07:40:58.000Z</time>
      </trkpt>
      <trkpt lat="40.922948" lon="-72.375654">
        <ele>18.472367</ele>
        <time>2024-09-08T07:41:08.000Z</time>
      </trkpt>
      <trkpt lat="40.923279" lon="-72.375288">
        <ele>18.172588</ele>
        <time>2024-09-08T07:41:13.000Z</time>
      </trkpt>
      <trkpt lat="40.923371" lon="-72.375095">
        <ele>18.049375</ele>
        <time>2024-09-08T07:41:15.000Z</time>
      </trkpt>
      <trkpt lat="40.923461" lon="-72.37493">
        <ele>17.945018</ele>
        <time>2024-09-08T07:41:17.000Z</time>
      </trkpt>
      <trkpt lat="40.923489" lon="-72.374868">
        <ele>17.906872</ele>
        <time>2024-09-08T07:41:18.000Z</time>
      </trkpt>
      <trkpt lat="40.923564" lon="-72.374343">
        <ele>17.629919</ele>
        <time>2024-09-08T07:41:22.000Z</time>
      </trkpt>
      <trkpt lat="40.923579" lon="-72.373662">
        <ele>16.923724</ele>
        <time>2024-09-08T07:41:28.000Z</time>
      </trkpt>
      <trkpt lat="40.923596" lon="-72.373417">
        <ele>16.592435</ele>
        <time>2024-09-08T07:41:30.000Z</time>
      </trkpt>
      <trkpt lat="40.923683" lon="-72.373262">
        <ele>16.306741</ele>
        <time>2024-09-08T07:41:32.000Z</time>
      </trkpt>
      <trkpt lat="40.924006" lon="-72.373013">
        <ele>15.627171</ele>
        <time>2024-09-08T07:41:36.000Z</time>
      </trkpt>
      <trkpt lat="40.923369" lon="-72.372922">
        <ele>14.442405</ele>
        <time>2024-09-08T07:41:43.000Z</time>
      </trkpt>
      <trkpt lat="40.922827" lon="-72.372756">
        <ele>13.629239</ele>
        <time>2024-09-08T07:41:49.000Z</time>
      </trkpt>
      <trkpt lat="40.92279" lon="-72.372753">
        <ele>13.571747</ele>
        <time>2024-09-08T07:41:49.000Z</time>
      </trkpt>
      <trkpt lat="40.922146" lon="-72.37258">
        <ele>12.712307</ele>
        <time>2024-09-08T07:41:56.000Z</time>
      </trkpt>
      <trkpt lat="40.921529" lon="-72.372413">
        <ele>11.862452</ele>
        <time>2024-09-08T07:42:03.000Z</time>
      </trkpt>
      <trkpt lat="40.921495" lon="-72.372412">
        <ele>11.824127</ele>
        <time>2024-09-08T07:42:03.000Z</time>
      </trkpt>
      <trkpt lat="40.920924" lon="-72.372272">
        <ele>10.999806</ele>
        <time>2024-09-08T07:42:09.000Z</time>
      </trkpt>
      <trkpt lat="40.920902" lon="-72.372276">
        <ele>10.964956</ele>
        <time>2024-09-08T07:42:09.000Z</time>
      </trkpt>
      <trkpt lat="40.920613" lon="-72.372257">
        <ele>10.577818</ele>
        <time>2024-09-08T07:42:12.000Z</time>
      </trkpt>
      <trkpt lat="40.920286" lon="-72.372256">
        <ele>10.114517</ele>
        <time>2024-09-08T07:42:16.000Z</time>
      </trkpt>
      <trkpt lat="40.920219" lon="-72.372273">
        <ele>10.039142</ele>
        <time>2024-09-08T07:42:17.000Z</time>
      </trkpt>
      <trkpt lat="40.919203" lon="-72.372451">
        <ele>8.372659</ele>
        <time>2024-09-08T07:42:28.000Z</time>
      </trkpt>
      <trkpt lat="40.918972" lon="-72.372433">
        <ele>7.974564</ele>
        <time>2024-09-08T07:42:31.000Z</time>
      </trkpt>
      <trkpt lat="40.918888" lon="-72.372418">
        <ele>7.806815</ele>
        <time>2024-09-08T07:42:32.000Z</time>
      </trkpt>
      <trkpt lat="40.918199" lon="-72.372389">
        <ele>6.520346</ele>
        <time>2024-09-08T07:42:40.000Z</time>
      </trkpt>
      <trkpt lat="40.917981" lon="-72.372311">
        <ele>6.126221</ele>
        <time>2024-09-08T07:42:43.000Z</time>
      </trkpt>
      <trkpt lat="40.917815" lon="-72.372258">
        <ele>5.855618</ele>
        <time>2024-09-08T07:42:45.000Z</time>
      </trkpt>
      <trkpt lat="40.917176" lon="-72.372025">
        <ele>4.97657</ele>
        <time>2024-09-08T07:42:52.000Z</time>
      </trkpt>
      <trkpt lat="40.916519" lon="-72.372111">
        <ele>4.116569</ele>
        <time>2024-09-08T07:42:59.000Z</time>
      </trkpt>
      <trkpt lat="40.91626" lon="-72.372341">
        <ele>3.691736</ele>
        <time>2024-09-08T07:43:02.000Z</time>
      </trkpt>
      <trkpt lat="40.915696" lon="-72.372878">
        <ele>3.187595</ele>
        <time>2024-09-08T07:43:10.000Z</time>
      </trkpt>
      <trkpt lat="40.915656" lon="-72.372916">
        <ele>3.16131</ele>
        <time>2024-09-08T07:43:11.000Z</time>
      </trkpt>
      <trkpt lat="40.915607" lon="-72.372957">
        <ele>3.121214</ele>
        <time>2024-09-08T07:43:12.000Z</time>
      </trkpt>
      <trkpt lat="40.915323" lon="-72.373216">
        <ele>2.887326</ele>
        <time>2024-09-08T07:43:16.000Z</time>
      </trkpt>
      <trkpt lat="40.915098" lon="-72.373333">
        <ele>2.729972</ele>
        <time>2024-09-08T07:43:19.000Z</time>
      </trkpt>
      <trkpt lat="40.914794" lon="-72.373336">
        <ele>2.524917</ele>
        <time>2024-09-08T07:43:22.000Z</time>
      </trkpt>
      <trkpt lat="40.914376" lon="-72.373237">
        <ele>2.367448</ele>
        <time>2024-09-08T07:43:27.000Z</time>
      </trkpt>
      <trkpt lat="40.914249" lon="-72.373204">
        <ele>2.351055</ele>
        <time>2024-09-08T07:43:28.000Z</time>
      </trkpt>
      <trkpt lat="40.912403" lon="-72.372775">
        <ele>2.431076</ele>
        <time>2024-09-08T07:43:49.000Z</time>
      </trkpt>
      <trkpt lat="40.911506" lon="-72.372174">
        <ele>3.057432</ele>
        <time>2024-09-08T07:44:00.000Z</time>
      </trkpt>
      <trkpt lat="40.911052" lon="-72.372061">
        <ele>3.480772</ele>
        <time>2024-09-08T07:44:05.000Z</time>
      </trkpt>
      <trkpt lat="40.908719" lon="-72.372542">
        <ele>7.540654</ele>
        <time>2024-09-08T07:44:31.000Z</time>
      </trkpt>
      <trkpt lat="40.90868" lon="-72.372393">
        <ele>7.72041</ele>
        <time>2024-09-08T07:44:32.000Z</time>
      </trkpt>
      <trkpt lat="40.908334" lon="-72.370425">
        <ele>9.477288</ele>
        <time>2024-09-08T07:44:49.000Z</time>
      </trkpt>
      <trkpt lat="40.908247" lon="-72.369431">
        <ele>9.897892</ele>
        <time>2024-09-08T07:44:57.000Z</time>
      </trkpt>
      <trkpt lat="40.908258" lon="-72.369269">
        <ele>9.967945</ele>
        <time>2024-09-08T07:44:58.000Z</time>
      </trkpt>
      <trkpt lat="40.908218" lon="-72.368786">
        <ele>10.173816</ele>
        <time>2024-09-08T07:45:02.000Z</time>
      </trkpt>
      <trkpt lat="40.908202" lon="-72.368083">
        <ele>10.134367</ele>
        <time>2024-09-08T07:45:08.000Z</time>
      </trkpt>
      <trkpt lat="40.908183" lon="-72.36759">
        <ele>10.099868</ele>
        <time>2024-09-08T07:45:12.000Z</time>
      </trkpt>
      <trkpt lat="40.908132" lon="-72.366114">
        <ele>9.817177</ele>
        <time>2024-09-08T07:45:24.000Z</time>
      </trkpt>
      <trkpt lat="40.908101" lon="-72.36474">
        <ele>8.785042</ele>
        <time>2024-09-08T07:45:36.000Z</time>
      </trkpt>
      <trkpt lat="40.908103" lon="-72.364082">
        <ele>8.297297</ele>
        <time>2024-09-08T07:45:42.000Z</time>
      </trkpt>
      <trkpt lat="40.908281" lon="-72.361819">
        <ele>5.04349</ele>
        <time>2024-09-08T07:46:01.000Z</time>
      </trkpt>
      <trkpt lat="40.908387" lon="-72.361244">
        <ele>4.394079</ele>
        <time>2024-09-08T07:46:06.000Z</time>
      </trkpt>
      <trkpt lat="40.908654" lon="-72.360468">
        <ele>3.613927</ele>
        <time>2024-09-08T07:46:13.000Z</time>
      </trkpt>
      <trkpt lat="40.908861" lon="-72.360021">
        <ele>3.130185</ele>
        <time>2024-09-08T07:46:17.000Z</time>
      </trkpt>
      <trkpt lat="40.909019" lon="-72.35979">
        <ele>2.852944</ele>
        <time>2024-09-08T07:46:20.000Z</time>
      </trkpt>
      <trkpt lat="40.909097" lon="-72.359674">
        <ele>2.706288</ele>
        <time>2024-09-08T07:46:21.000Z</time>
      </trkpt>
      <trkpt lat="40.909561" lon="-72.359093">
        <ele>2.473574</ele>
        <time>2024-09-08T07:46:28.000Z</time>
      </trkpt>
      <trkpt lat="40.909731" lon="-72.358888">
        <ele>2.423808</ele>
        <time>2024-09-08T07:46:31.000Z</time>
      </trkpt>
      <trkpt lat="40.909802" lon="-72.358742">
        <ele>2.392658</ele>
        <time>2024-09-08T07:46:32.000Z</time>
      </trkpt>
      <trkpt lat="40.909864" lon="-72.359072">
        <ele>2.334062</ele>
        <time>2024-09-08T07:46:35.000Z</time>
      </trkpt>
      <trkpt lat="40.909887" lon="-72.359134">
        <ele>2.324068</ele>
        <time>2024-09-08T07:46:36.000Z</time>
      </trkpt>
      <trkpt lat="40.910128" lon="-72.360328">
        <ele>2.212986</ele>
        <time>2024-09-08T07:46:46.000Z</time>
      </trkpt>
      <trkpt lat="40.910156" lon="-72.360459">
        <ele>2.218889</ele>
        <time>2024-09-08T07:46:47.000Z</time>
      </trkpt>
      <trkpt lat="40.910247" lon="-72.36091">
        <ele>2.238555</ele>
        <time>2024-09-08T07:46:51.000Z</time>
      </trkpt>
      <trkpt lat="40.910258" lon="-72.361122">
        <ele>2.247412</ele>
        <time>2024-09-08T07:46:53.000Z</time>
      </trkpt>
      <trkpt lat="40.910221" lon="-72.36142">
        <ele>2.260507</ele>
        <time>2024-09-08T07:46:56.000Z</time>
      </trkpt>
      <trkpt lat="40.910176" lon="-72.361651">
        <ele>2.270839</ele>
        <time>2024-09-08T07:46:58.000Z</time>
      </trkpt>
      <trkpt lat="40.909915" lon="-72.362282">
        <ele>2.287499</ele>
        <time>2024-09-08T07:47:04.000Z</time>
      </trkpt>
      <trkpt lat="40.909842" lon="-72.362577">
        <ele>2.276009</ele>
        <time>2024-09-08T07:47:07.000Z</time>
      </trkpt>
      <trkpt lat="40.909825" lon="-72.362997">
        <ele>2.260111</ele>
        <time>2024-09-08T07:47:11.000Z</time>
      </trkpt>
      <trkpt lat="40.909853" lon="-72.363332">
        <ele>2.247042</ele>
        <time>2024-09-08T07:47:14.000Z</time>
      </trkpt>
      <trkpt lat="40.909981" lon="-72.363814">
        <ele>2.228217</ele>
        <time>2024-09-08T07:47:18.000Z</time>
      </trkpt>
      <trkpt lat="40.91007" lon="-72.363981">
        <ele>2.220105</ele>
        <time>2024-09-08T07:47:20.000Z</time>
      </trkpt>
      <trkpt lat="40.910168" lon="-72.364191">
        <ele>2.211417</ele>
        <time>2024-09-08T07:47:22.000Z</time>
      </trkpt>
      <trkpt lat="40.910313" lon="-72.364391">
        <ele>2.174306</ele>
        <time>2024-09-08T07:47:24.000Z</time>
      </trkpt>
      <trkpt lat="40.910487" lon="-72.364544">
        <ele>2.096603</ele>
        <time>2024-09-08T07:47:26.000Z</time>
      </trkpt>
      <trkpt lat="40.910705" lon="-72.36462">
        <ele>2.005498</ele>
        <time>2024-09-08T07:47:29.000Z</time>
      </trkpt>
      <trkpt lat="40.910779" lon="-72.364652">
        <ele>1.978736</ele>
        <time>2024-09-08T07:47:30.000Z</time>
      </trkpt>
      <trkpt lat="40.910812" lon="-72.364658">
        <ele>1.962814</ele>
        <time>2024-09-08T07:47:30.000Z</time>
      </trkpt>
      <trkpt lat="40.911206" lon="-72.364711">
        <ele>1.807008</ele>
        <time>2024-09-08T07:47:34.000Z</time>
      </trkpt>
      <trkpt lat="40.912774" lon="-72.364727">
        <ele>1.430275</ele>
        <time>2024-09-08T07:47:51.000Z</time>
      </trkpt>
      <trkpt lat="40.914403" lon="-72.364731">
        <ele>1.600607</ele>
        <time>2024-09-08T07:48:09.000Z</time>
      </trkpt>
      <trkpt lat="40.915985" lon="-72.364668">
        <ele>2.655105</ele>
        <time>2024-09-08T07:48:27.000Z</time>
      </trkpt>
      <trkpt lat="40.916035" lon="-72.364667">
        <ele>2.736643</ele>
        <time>2024-09-08T07:48:28.000Z</time>
      </trkpt>
      <trkpt lat="40.916292" lon="-72.364655">
        <ele>3.092219</ele>
        <time>2024-09-08T07:48:31.000Z</time>
      </trkpt>
      <trkpt lat="40.916625" lon="-72.364593">
        <ele>3.578304</ele>
        <time>2024-09-08T07:48:35.000Z</time>
      </trkpt>
      <trkpt lat="40.916792" lon="-72.364537">
        <ele>3.801404</ele>
        <time>2024-09-08T07:48:37.000Z</time>
      </trkpt>
      <trkpt lat="40.917704" lon="-72.364274">
        <ele>5.357471</ele>
        <time>2024-09-08T07:48:47.000Z</time>
      </trkpt>
      <trkpt lat="40.918034" lon="-72.364124">
        <ele>6.102235</ele>
        <time>2024-09-08T07:48:51.000Z</time>
      </trkpt>
      <trkpt lat="40.91824" lon="-72.363946">
        <ele>6.587181</ele>
        <time>2024-09-08T07:48:54.000Z</time>
      </trkpt>
      <trkpt lat="40.918432" lon="-72.36364">
        <ele>7.226989</ele>
        <time>2024-09-08T07:48:57.000Z</time>
      </trkpt>
      <trkpt lat="40.918992" lon="-72.362807">
        <ele>8.748494</ele>
        <time>2024-09-08T07:49:06.000Z</time>
      </trkpt>
      <trkpt lat="40.920302" lon="-72.361482">
        <ele>10.733057</ele>
        <time>2024-09-08T07:49:24.000Z</time>
      </trkpt>
      <trkpt lat="40.920359" lon="-72.361429">
        <ele>10.738575</ele>
        <time>2024-09-08T07:49:25.000Z</time>
      </trkpt>
      <trkpt lat="40.920477" lon="-72.361301">
        <ele>10.750368</ele>
        <time>2024-09-08T07:49:27.000Z</time>
      </trkpt>
      <trkpt lat="40.920739" lon="-72.361016">
        <ele>10.777188</ele>
        <time>2024-09-08T07:49:31.000Z</time>
      </trkpt>
      <trkpt lat="40.920861" lon="-72.360822">
        <ele>10.792503</ele>
        <time>2024-09-08T07:49:33.000Z</time>
      </trkpt>
      <trkpt lat="40.921011" lon="-72.360475">
        <ele>10.816991</ele>
        <time>2024-09-08T07:49:36.000Z</time>
      </trkpt>
      <trkpt lat="40.92107" lon="-72.36031">
        <ele>10.828551</ele>
        <time>2024-09-08T07:49:38.000Z</time>
      </trkpt>
      <trkpt lat="40.921186" lon="-72.360022">
        <ele>10.847607</ele>
        <time>2024-09-08T07:49:41.000Z</time>
      </trkpt>
      <trkpt lat="40.921316" lon="-72.359704">
        <ele>10.859383</ele>
        <time>2024-09-08T07:49:44.000Z</time>
      </trkpt>
      <trkpt lat="40.921321" lon="-72.359682">
        <ele>10.854263</ele>
        <time>2024-09-08T07:49:44.000Z</time>
      </trkpt>
      <trkpt lat="40.92152" lon="-72.359184">
        <ele>10.778608</ele>
        <time>2024-09-08T07:49:49.000Z</time>
      </trkpt>
      <trkpt lat="40.921554" lon="-72.359089">
        <ele>10.763562</ele>
        <time>2024-09-08T07:49:50.000Z</time>
      </trkpt>
      <trkpt lat="40.921853" lon="-72.358229">
        <ele>10.632294</ele>
        <time>2024-09-08T07:49:58.000Z</time>
      </trkpt>
      <trkpt lat="40.922022" lon="-72.357717">
        <ele>10.55666</ele>
        <time>2024-09-08T07:50:03.000Z</time>
      </trkpt>
      <trkpt lat="40.922323" lon="-72.357801">
        <ele>10.573988</ele>
        <time>2024-09-08T07:50:06.000Z</time>
      </trkpt>
      <trkpt lat="40.922633" lon="-72.357927">
        <ele>10.629538</ele>
        <time>2024-09-08T07:50:10.000Z</time>
      </trkpt>
      <trkpt lat="40.922843" lon="-72.357925">
        <ele>10.664168</ele>
        <time>2024-09-08T07:50:12.000Z</time>
      </trkpt>
      <trkpt lat="40.923216" lon="-72.358045">
        <ele>10.729535</ele>
        <time>2024-09-08T07:50:16.000Z</time>
      </trkpt>
      <trkpt lat="40.923297" lon="-72.358041">
        <ele>10.744811</ele>
        <time>2024-09-08T07:50:17.000Z</time>
      </trkpt>
      <trkpt lat="40.92349" lon="-72.357975">
        <ele>10.77644</ele>
        <time>2024-09-08T07:50:19.000Z</time>
      </trkpt>
      <trkpt lat="40.924961" lon="-72.356686">
        <ele>10.714048</ele>
        <time>2024-09-08T07:50:39.000Z</time>
      </trkpt>
      <trkpt lat="40.925385" lon="-72.356206">
        <ele>10.666524</ele>
        <time>2024-09-08T07:50:45.000Z</time>
      </trkpt>
      <trkpt lat="40.925592" lon="-72.355807">
        <ele>10.64433</ele>
        <time>2024-09-08T07:50:49.000Z</time>
      </trkpt>
      <trkpt lat="40.925763" lon="-72.355422">
        <ele>10.624386</ele>
        <time>2024-09-08T07:50:53.000Z</time>
      </trkpt>
      <trkpt lat="40.925969" lon="-72.355049">
        <ele>10.602703</ele>
        <time>2024-09-08T07:50:57.000Z</time>
      </trkpt>
      <trkpt lat="40.926078" lon="-72.354893">
        <ele>10.593162</ele>
        <time>2024-09-08T07:50:59.000Z</time>
      </trkpt>
      <trkpt lat="40.927658" lon="-72.352618">
        <ele>10.783222</ele>
        <time>2024-09-08T07:51:25.000Z</time>
      </trkpt>
      <trkpt lat="40.927778" lon="-72.352514">
        <ele>10.805764</ele>
        <time>2024-09-08T07:51:27.000Z</time>
      </trkpt>
      <trkpt lat="40.928107" lon="-72.352262">
        <ele>10.867512</ele>
        <time>2024-09-08T07:51:31.000Z</time>
      </trkpt>
      <trkpt lat="40.92995" lon="-72.351631">
        <ele>11.369117</ele>
        <time>2024-09-08T07:51:52.000Z</time>
      </trkpt>
      <trkpt lat="40.930415" lon="-72.351498">
        <ele>11.578633</ele>
        <time>2024-09-08T07:51:57.000Z</time>
      </trkpt>
      <trkpt lat="40.930713" lon="-72.351382">
        <ele>11.710656</ele>
        <time>2024-09-08T07:52:00.000Z</time>
      </trkpt>
      <trkpt lat="40.931547" lon="-72.351061">
        <ele>11.568352</ele>
        <time>2024-09-08T07:52:10.000Z</time>
      </trkpt>
      <trkpt lat="40.931577" lon="-72.351034">
        <ele>11.54912</ele>
        <time>2024-09-08T07:52:10.000Z</time>
      </trkpt>
      <trkpt lat="40.931895" lon="-72.350853">
        <ele>11.384033</ele>
        <time>2024-09-08T07:52:14.000Z</time>
      </trkpt>
      <trkpt lat="40.932046" lon="-72.350794">
        <ele>11.300881</ele>
        <time>2024-09-08T07:52:16.000Z</time>
      </trkpt>
      <trkpt lat="40.932273" lon="-72.350613">
        <ele>11.170994</ele>
        <time>2024-09-08T07:52:19.000Z</time>
      </trkpt>
      <trkpt lat="40.932358" lon="-72.350521">
        <ele>11.121038</ele>
        <time>2024-09-08T07:52:20.000Z</time>
      </trkpt>
      <trkpt lat="40.93259" lon="-72.349916">
        <ele>10.776794</ele>
        <time>2024-09-08T07:52:26.000Z</time>
      </trkpt>
      <trkpt lat="40.932743" lon="-72.349324">
        <ele>10.309487</ele>
        <time>2024-09-08T07:52:31.000Z</time>
      </trkpt>
      <trkpt lat="40.932823" lon="-72.349089">
        <ele>10.122074</ele>
        <time>2024-09-08T07:52:33.000Z</time>
      </trkpt>
      <trkpt lat="40.932903" lon="-72.348647">
        <ele>9.774666</ele>
        <time>2024-09-08T07:52:37.000Z</time>
      </trkpt>
      <trkpt lat="40.932968" lon="-72.348316">
        <ele>9.531479</ele>
        <time>2024-09-08T07:52:40.000Z</time>
      </trkpt>
      <trkpt lat="40.933064" lon="-72.347659">
        <ele>9.190192</ele>
        <time>2024-09-08T07:52:46.000Z</time>
      </trkpt>
      <trkpt lat="40.933112" lon="-72.347274">
        <ele>9.178801</ele>
        <time>2024-09-08T07:52:49.000Z</time>
      </trkpt>
      <trkpt lat="40.933156" lon="-72.346771">
        <ele>9.163865</ele>
        <time>2024-09-08T07:52:53.000Z</time>
      </trkpt>
      <trkpt lat="40.933157" lon="-72.346599">
        <ele>9.158868</ele>
        <time>2024-09-08T07:52:54.000Z</time>
      </trkpt>
      <trkpt lat="40.933173" lon="-72.346343">
        <ele>9.15078</ele>
        <time>2024-09-08T07:52:56.000Z</time>
      </trkpt>
      <trkpt lat="40.933235" lon="-72.345492">
        <ele>9.116684</ele>
        <time>2024-09-08T07:53:03.000Z</time>
      </trkpt>
      <trkpt lat="40.933359" lon="-72.343897">
        <ele>8.559632</ele>
        <time>2024-09-08T07:53:16.000Z</time>
      </trkpt>
      <trkpt lat="40.933376" lon="-72.343737">
        <ele>8.502926</ele>
        <time>2024-09-08T07:53:17.000Z</time>
      </trkpt>
      <trkpt lat="40.933495" lon="-72.342798">
        <ele>8.246784</ele>
        <time>2024-09-08T07:53:25.000Z</time>
      </trkpt>
      <trkpt lat="40.933681" lon="-72.342529">
        <ele>8.195597</ele>
        <time>2024-09-08T07:53:28.000Z</time>
      </trkpt>
      <trkpt lat="40.934191" lon="-72.341899">
        <ele>8.064853</ele>
        <time>2024-09-08T07:53:36.000Z</time>
      </trkpt>
      <trkpt lat="40.93471" lon="-72.341325">
        <ele>8.043898</ele>
        <time>2024-09-08T07:53:44.000Z</time>
      </trkpt>
      <trkpt lat="40.935258" lon="-72.340536">
        <ele>8.621524</ele>
        <time>2024-09-08T07:53:53.000Z</time>
      </trkpt>
      <trkpt lat="40.935299" lon="-72.340439">
        <ele>8.685349</ele>
        <time>2024-09-08T07:53:54.000Z</time>
      </trkpt>
      <trkpt lat="40.93526" lon="-72.340255">
        <ele>8.787894</ele>
        <time>2024-09-08T07:53:56.000Z</time>
      </trkpt>
      <trkpt lat="40.935539" lon="-72.340109">
        <ele>9.000821</ele>
        <time>2024-09-08T07:53:59.000Z</time>
      </trkpt>
      <trkpt lat="40.935604" lon="-72.340075">
        <ele>9.059172</ele>
        <time>2024-09-08T07:54:00.000Z</time>
      </trkpt>
      <trkpt lat="40.936017" lon="-72.339767">
        <ele>9.456323</ele>
        <time>2024-09-08T07:54:05.000Z</time>
      </trkpt>
      <trkpt lat="40.936707" lon="-72.33913">
        <ele>10.275659</ele>
        <time>2024-09-08T07:54:14.000Z</time>
      </trkpt>
      <trkpt lat="40.937061" lon="-72.338827">
        <ele>10.687415</ele>
        <time>2024-09-08T07:54:19.000Z</time>
      </trkpt>
      <trkpt lat="40.937397" lon="-72.338495">
        <ele>11.100784</ele>
        <time>2024-09-08T07:54:24.000Z</time>
      </trkpt>
      <trkpt lat="40.938275" lon="-72.337703">
        <ele>12.122314</ele>
        <time>2024-09-08T07:54:36.000Z</time>
      </trkpt>
      <trkpt lat="40.938635" lon="-72.337433">
        <ele>12.522756</ele>
        <time>2024-09-08T07:54:41.000Z</time>
      </trkpt>
      <trkpt lat="40.938896" lon="-72.337271">
        <ele>12.794492</ele>
        <time>2024-09-08T07:54:44.000Z</time>
      </trkpt>
      <trkpt lat="40.939411" lon="-72.337013">
        <ele>13.285839</ele>
        <time>2024-09-08T07:54:50.000Z</time>
      </trkpt>
      <trkpt lat="40.94022" lon="-72.336611">
        <ele>14.064455</ele>
        <time>2024-09-08T07:55:00.000Z</time>
      </trkpt>
      <trkpt lat="40.940754" lon="-72.336366">
        <ele>14.476232</ele>
        <time>2024-09-08T07:55:06.000Z</time>
      </trkpt>
      <trkpt lat="40.941248" lon="-72.336052">
        <ele>14.747262</ele>
        <time>2024-09-08T07:55:12.000Z</time>
      </trkpt>
      <trkpt lat="40.941952" lon="-72.335487">
        <ele>15.160922</ele>
        <time>2024-09-08T07:55:21.000Z</time>
      </trkpt>
      <trkpt lat="40.942788" lon="-72.334729">
        <ele>14.193927</ele>
        <time>2024-09-08T07:55:32.000Z</time>
      </trkpt>
      <trkpt lat="40.942916" lon="-72.334608">
        <ele>13.988544</ele>
        <time>2024-09-08T07:55:34.000Z</time>
      </trkpt>
      <trkpt lat="40.943365" lon="-72.334122">
        <ele>13.223751</ele>
        <time>2024-09-08T07:55:40.000Z</time>
      </trkpt>
      <trkpt lat="40.943752" lon="-72.333607">
        <ele>12.581666</ele>
        <time>2024-09-08T07:55:46.000Z</time>
      </trkpt>
      <trkpt lat="40.943984" lon="-72.33325">
        <ele>12.19868</ele>
        <time>2024-09-08T07:55:50.000Z</time>
      </trkpt>
      <trkpt lat="40.944492" lon="-72.332355">
        <ele>11.293925</ele>
        <time>2024-09-08T07:55:59.000Z</time>
      </trkpt>
      <trkpt lat="40.944968" lon="-72.331405">
        <ele>11.796346</ele>
        <time>2024-09-08T07:56:09.000Z</time>
      </trkpt>
      <trkpt lat="40.945121" lon="-72.331171">
        <ele>12.114515</ele>
        <time>2024-09-08T07:56:12.000Z</time>
      </trkpt>
      <trkpt lat="40.945329" lon="-72.330878">
        <ele>12.544791</ele>
        <time>2024-09-08T07:56:15.000Z</time>
      </trkpt>
      <trkpt lat="40.945537" lon="-72.330658">
        <ele>12.925197</ele>
        <time>2024-09-08T07:56:18.000Z</time>
      </trkpt>
      <trkpt lat="40.945789" lon="-72.330494">
        <ele>13.301867</ele>
        <time>2024-09-08T07:56:21.000Z</time>
      </trkpt>
      <trkpt lat="40.9489" lon="-72.32922">
        <ele>21.538041</ele>
        <time>2024-09-08T07:56:57.000Z</time>
      </trkpt>
      <trkpt lat="40.94951" lon="-72.328957">
        <ele>22.862219</ele>
        <time>2024-09-08T07:57:04.000Z</time>
      </trkpt>
      <trkpt lat="40.949992" lon="-72.328735">
        <ele>23.351752</ele>
        <time>2024-09-08T07:57:10.000Z</time>
      </trkpt>
      <trkpt lat="40.950069" lon="-72.328632">
        <ele>23.449414</ele>
        <time>2024-09-08T07:57:11.000Z</time>
      </trkpt>
      <trkpt lat="40.950104" lon="-72.328558">
        <ele>23.519335</ele>
        <time>2024-09-08T07:57:12.000Z</time>
      </trkpt>
      <trkpt lat="40.950109" lon="-72.328534">
        <ele>23.538159</ele>
        <time>2024-09-08T07:57:12.000Z</time>
      </trkpt>
      <trkpt lat="40.950062" lon="-72.328412">
        <ele>23.632245</ele>
        <time>2024-09-08T07:57:13.000Z</time>
      </trkpt>
      <trkpt lat="40.949711" lon="-72.327815">
        <ele>24.176819</ele>
        <time>2024-09-08T07:57:19.000Z</time>
      </trkpt>
      <trkpt lat="40.949385" lon="-72.327306">
        <ele>24.20717</ele>
        <time>2024-09-08T07:57:25.000Z</time>
      </trkpt>
      <trkpt lat="40.947752" lon="-72.324758">
        <ele>21.932764</ele>
        <time>2024-09-08T07:57:53.000Z</time>
      </trkpt>
      <trkpt lat="40.947584" lon="-72.324463">
        <ele>21.640536</ele>
        <time>2024-09-08T07:57:56.000Z</time>
      </trkpt>
      <trkpt lat="40.947479" lon="-72.324303">
        <ele>21.476789</ele>
        <time>2024-09-08T07:57:58.000Z</time>
      </trkpt>
      <trkpt lat="40.94739" lon="-72.32418">
        <ele>21.346226</ele>
        <time>2024-09-08T07:57:59.000Z</time>
      </trkpt>
      <trkpt lat="40.94726" lon="-72.324018">
        <ele>21.159299</ele>
        <time>2024-09-08T07:58:01.000Z</time>
      </trkpt>
      <trkpt lat="40.947053" lon="-72.323765">
        <ele>20.905414</ele>
        <time>2024-09-08T07:58:04.000Z</time>
      </trkpt>
      <trkpt lat="40.946768" lon="-72.323392">
        <ele>20.569144</ele>
        <time>2024-09-08T07:58:08.000Z</time>
      </trkpt>
      <trkpt lat="40.946685" lon="-72.323271">
        <ele>20.457035</ele>
        <time>2024-09-08T07:58:09.000Z</time>
      </trkpt>
      <trkpt lat="40.946268" lon="-72.322735">
        <ele>19.963214</ele>
        <time>2024-09-08T07:58:15.000Z</time>
      </trkpt>
      <trkpt lat="40.946111" lon="-72.322533">
        <ele>19.780711</ele>
        <time>2024-09-08T07:58:17.000Z</time>
      </trkpt>
      <trkpt lat="40.945661" lon="-72.321983">
        <ele>19.167082</ele>
        <time>2024-09-08T07:58:24.000Z</time>
      </trkpt>
      <trkpt lat="40.945595" lon="-72.321882">
        <ele>19.05693</ele>
        <time>2024-09-08T07:58:25.000Z</time>
      </trkpt>
      <trkpt lat="40.945503" lon="-72.321783">
        <ele>18.923635</ele>
        <time>2024-09-08T07:58:26.000Z</time>
      </trkpt>
      <trkpt lat="40.945302" lon="-72.321523">
        <ele>18.584542</ele>
        <time>2024-09-08T07:58:29.000Z</time>
      </trkpt>
      <trkpt lat="40.944958" lon="-72.321089">
        <ele>18.042612</ele>
        <time>2024-09-08T07:58:34.000Z</time>
      </trkpt>
      <trkpt lat="40.944905" lon="-72.321028">
        <ele>17.968292</ele>
        <time>2024-09-08T07:58:35.000Z</time>
      </trkpt>
      <trkpt lat="40.944865" lon="-72.320975">
        <ele>17.916281</ele>
        <time>2024-09-08T07:58:36.000Z</time>
      </trkpt>
      <trkpt lat="40.944711" lon="-72.320777">
        <ele>17.661685</ele>
        <time>2024-09-08T07:58:38.000Z</time>
      </trkpt>
      <trkpt lat="40.944277" lon="-72.320225">
        <ele>17.161303</ele>
        <time>2024-09-08T07:58:45.000Z</time>
      </trkpt>
      <trkpt lat="40.944196" lon="-72.320124">
        <ele>17.079951</ele>
        <time>2024-09-08T07:58:46.000Z</time>
      </trkpt>
      <trkpt lat="40.944167" lon="-72.320066">
        <ele>17.034793</ele>
        <time>2024-09-08T07:58:47.000Z</time>
      </trkpt>
      <trkpt lat="40.943785" lon="-72.319566">
        <ele>16.638233</ele>
        <time>2024-09-08T07:58:53.000Z</time>
      </trkpt>
      <trkpt lat="40.943502" lon="-72.319214">
        <ele>16.345137</ele>
        <time>2024-09-08T07:58:57.000Z</time>
      </trkpt>
      <trkpt lat="40.942708" lon="-72.31819">
        <ele>16.104234</ele>
        <time>2024-09-08T07:59:09.000Z</time>
      </trkpt>
      <trkpt lat="40.942665" lon="-72.318123">
        <ele>16.098082</ele>
        <time>2024-09-08T07:59:10.000Z</time>
      </trkpt>
      <trkpt lat="40.942048" lon="-72.317333">
        <ele>16.034371</ele>
        <time>2024-09-08T07:59:20.000Z</time>
      </trkpt>
      <trkpt lat="40.941234" lon="-72.316295">
        <ele>15.703597</ele>
        <time>2024-09-08T07:59:33.000Z</time>
      </trkpt>
      <trkpt lat="40.940863" lon="-72.315847">
        <ele>15.554355</ele>
        <time>2024-09-08T07:59:39.000Z</time>
      </trkpt>
      <trkpt lat="40.940034" lon="-72.314792">
        <ele>14.478809</ele>
        <time>2024-09-08T07:59:52.000Z</time>
      </trkpt>
      <trkpt lat="40.939875" lon="-72.3145">
        <ele>14.196318</ele>
        <time>2024-09-08T07:59:55.000Z</time>
      </trkpt>
      <trkpt lat="40.939642" lon="-72.313989">
        <ele>13.715191</ele>
        <time>2024-09-08T08:00:00.000Z</time>
      </trkpt>
      <trkpt lat="40.938754" lon="-72.311625">
        <ele>10.920983</ele>
        <time>2024-09-08T08:00:22.000Z</time>
      </trkpt>
      <trkpt lat="40.938684" lon="-72.311292">
        <ele>10.857774</ele>
        <time>2024-09-08T08:00:25.000Z</time>
      </trkpt>
      <trkpt lat="40.938677" lon="-72.311026">
        <ele>10.808833</ele>
        <time>2024-09-08T08:00:27.000Z</time>
      </trkpt>
      <trkpt lat="40.938644" lon="-72.31087">
        <ele>10.778459</ele>
        <time>2024-09-08T08:00:28.000Z</time>
      </trkpt>
      <trkpt lat="40.939018" lon="-72.310974">
        <ele>10.68988</ele>
        <time>2024-09-08T08:00:32.000Z</time>
      </trkpt>
      <trkpt lat="40.939435" lon="-72.311141">
        <ele>10.584786</ele>
        <time>2024-09-08T08:00:37.000Z</time>
      </trkpt>
      <trkpt lat="40.940135" lon="-72.311503">
        <ele>10.737142</ele>
        <time>2024-09-08T08:00:45.000Z</time>
      </trkpt>
      <trkpt lat="40.940362" lon="-72.311629">
        <ele>10.860289</ele>
        <time>2024-09-08T08:00:48.000Z</time>
      </trkpt>
      <trkpt lat="40.941072" lon="-72.312087">
        <ele>11.267651</ele>
        <time>2024-09-08T08:00:57.000Z</time>
      </trkpt>
      <trkpt lat="40.941357" lon="-72.31225">
        <ele>11.419894</ele>
        <time>2024-09-08T08:01:00.000Z</time>
      </trkpt>
      <trkpt lat="40.941412" lon="-72.312297">
        <ele>11.470488</ele>
        <time>2024-09-08T08:01:01.000Z</time>
      </trkpt>
      <trkpt lat="40.941867" lon="-72.312593">
        <ele>11.803549</ele>
        <time>2024-09-08T08:01:07.000Z</time>
      </trkpt>
      <trkpt lat="40.942026" lon="-72.312696">
        <ele>11.92763</ele>
        <time>2024-09-08T08:01:09.000Z</time>
      </trkpt>
      <trkpt lat="40.942595" lon="-72.313081">
        <ele>12.356631</ele>
        <time>2024-09-08T08:01:16.000Z</time>
      </trkpt>
      <trkpt lat="40.942948" lon="-72.31331">
        <ele>12.616745</ele>
        <time>2024-09-08T08:01:20.000Z</time>
      </trkpt>
      <trkpt lat="40.943067" lon="-72.313382">
        <ele>12.763542</ele>
        <time>2024-09-08T08:01:21.000Z</time>
      </trkpt>
      <trkpt lat="40.943523" lon="-72.3137">
        <ele>13.336445</ele>
        <time>2024-09-08T08:01:27.000Z</time>
      </trkpt>
      <trkpt lat="40.943644" lon="-72.313777">
        <ele>13.49997</ele>
        <time>2024-09-08T08:01:28.000Z</time>
      </trkpt>
      <trkpt lat="40.944036" lon="-72.314035">
        <ele>14.004482</ele>
        <time>2024-09-08T08:01:33.000Z</time>
      </trkpt>
      <trkpt lat="40.945124" lon="-72.31476">
        <ele>15.447682</ele>
        <time>2024-09-08T08:01:47.000Z</time>
      </trkpt>
      <trkpt lat="40.945261" lon="-72.314856">
        <ele>15.625873</ele>
        <time>2024-09-08T08:01:49.000Z</time>
      </trkpt>
      <trkpt lat="40.946102" lon="-72.315413">
        <ele>16.770218</ele>
        <time>2024-09-08T08:01:59.000Z</time>
      </trkpt>
      <trkpt lat="40.946351" lon="-72.315557">
        <ele>17.085321</ele>
        <time>2024-09-08T08:02:02.000Z</time>
      </trkpt>
      <trkpt lat="40.946949" lon="-72.315938">
        <ele>17.803493</ele>
        <time>2024-09-08T08:02:09.000Z</time>
      </trkpt>
      <trkpt lat="40.947069" lon="-72.316026">
        <ele>17.964765</ele>
        <time>2024-09-08T08:02:11.000Z</time>
      </trkpt>
      <trkpt lat="40.94794" lon="-72.316565">
        <ele>19.079701</ele>
        <time>2024-09-08T08:02:22.000Z</time>
      </trkpt>
      <trkpt lat="40.948002" lon="-72.316616">
        <ele>19.199115</ele>
        <time>2024-09-08T08:02:23.000Z</time>
      </trkpt>
      <trkpt lat="40.948134" lon="-72.316709">
        <ele>19.421077</ele>
        <time>2024-09-08T08:02:25.000Z</time>
      </trkpt>
      <trkpt lat="40.948371" lon="-72.316858">
        <ele>19.818534</ele>
        <time>2024-09-08T08:02:28.000Z</time>
      </trkpt>
      <trkpt lat="40.948804" lon="-72.317136">
        <ele>20.561317</ele>
        <time>2024-09-08T08:02:33.000Z</time>
      </trkpt>
      <trkpt lat="40.948891" lon="-72.317187">
        <ele>20.693673</ele>
        <time>2024-09-08T08:02:34.000Z</time>
      </trkpt>
      <trkpt lat="40.949526" lon="-72.317592">
        <ele>21.787074</ele>
        <time>2024-09-08T08:02:42.000Z</time>
      </trkpt>
      <trkpt lat="40.949726" lon="-72.317727">
        <ele>22.14731</ele>
        <time>2024-09-08T08:02:44.000Z</time>
      </trkpt>
      <trkpt lat="40.950186" lon="-72.318012">
        <ele>22.941506</ele>
        <time>2024-09-08T08:02:50.000Z</time>
      </trkpt>
      <trkpt lat="40.950381" lon="-72.318147">
        <ele>23.310192</ele>
        <time>2024-09-08T08:02:52.000Z</time>
      </trkpt>
      <trkpt lat="40.95051" lon="-72.31821">
        <ele>23.533312</ele>
        <time>2024-09-08T08:02:54.000Z</time>
      </trkpt>
      <trkpt lat="40.950972" lon="-72.318513">
        <ele>24.368713</ele>
        <time>2024-09-08T08:03:00.000Z</time>
      </trkpt>
      <trkpt lat="40.951256" lon="-72.318691">
        <ele>24.723089</ele>
        <time>2024-09-08T08:03:03.000Z</time>
      </trkpt>
      <trkpt lat="40.951748" lon="-72.318987">
        <ele>25.225668</ele>
        <time>2024-09-08T08:03:09.000Z</time>
      </trkpt>
      <trkpt lat="40.95279" lon="-72.319645">
        <ele>26.357527</ele>
        <time>2024-09-08T08:03:22.000Z</time>
      </trkpt>
      <trkpt lat="40.95341" lon="-72.320044">
        <ele>27.080249</ele>
        <time>2024-09-08T08:03:30.000Z</time>
      </trkpt>
      <trkpt lat="40.954022" lon="-72.320409">
        <ele>27.799068</ele>
        <time>2024-09-08T08:03:37.000Z</time>
      </trkpt>
      <trkpt lat="40.957705" lon="-72.322734">
        <ele>33.537602</ele>
        <time>2024-09-08T08:04:22.000Z</time>
      </trkpt>
      <trkpt lat="40.958028" lon="-72.322965">
        <ele>33.61654</ele>
        <time>2024-09-08T08:04:26.000Z</time>
      </trkpt>
      <trkpt lat="40.958128" lon="-72.323075">
        <ele>33.642057</ele>
        <time>2024-09-08T08:04:27.000Z</time>
      </trkpt>
      <trkpt lat="40.958267" lon="-72.322951">
        <ele>33.679757</ele>
        <time>2024-09-08T08:04:29.000Z</time>
      </trkpt>
      <trkpt lat="40.958499" lon="-72.322588">
        <ele>33.753448</ele>
        <time>2024-09-08T08:04:33.000Z</time>
      </trkpt>
      <trkpt lat="40.959139" lon="-72.321251">
        <ele>33.446789</ele>
        <time>2024-09-08T08:04:46.000Z</time>
      </trkpt>
      <trkpt lat="40.960154" lon="-72.319105">
        <ele>32.519853</ele>
        <time>2024-09-08T08:05:07.000Z</time>
      </trkpt>
      <trkpt lat="40.961167" lon="-72.316889">
        <ele>33.555181</ele>
        <time>2024-09-08T08:05:29.000Z</time>
      </trkpt>
      <trkpt lat="40.961356" lon="-72.316374">
        <ele>34.10404</ele>
        <time>2024-09-08T08:05:34.000Z</time>
      </trkpt>
      <trkpt lat="40.964764" lon="-72.317012">
        <ele>41.800026</ele>
        <time>2024-09-08T08:06:12.000Z</time>
      </trkpt>
      <trkpt lat="40.965879" lon="-72.317081">
        <ele>43.202495</ele>
        <time>2024-09-08T08:06:24.000Z</time>
      </trkpt>
      <trkpt lat="40.966526" lon="-72.317215">
        <ele>43.212752</ele>
        <time>2024-09-08T08:06:31.000Z</time>
      </trkpt>
      <trkpt lat="40.966711" lon="-72.317195">
        <ele>43.215563</ele>
        <time>2024-09-08T08:06:33.000Z</time>
      </trkpt>
      <trkpt lat="40.967362" lon="-72.317">
        <ele>43.124591</ele>
        <time>2024-09-08T08:06:40.000Z</time>
      </trkpt>
      <trkpt lat="40.967747" lon="-72.316937">
        <ele>42.901905</ele>
        <time>2024-09-08T08:06:44.000Z</time>
      </trkpt>
      <trkpt lat="40.968089" lon="-72.316912">
        <ele>42.702773</ele>
        <time>2024-09-08T08:06:48.000Z</time>
      </trkpt>
      <trkpt lat="40.968648" lon="-72.317105">
        <ele>42.369053</ele>
        <time>2024-09-08T08:06:54.000Z</time>
      </trkpt>
      <trkpt lat="40.969458" lon="-72.317138">
        <ele>42.576931</ele>
        <time>2024-09-08T08:07:03.000Z</time>
      </trkpt>
      <trkpt lat="40.969946" lon="-72.317073">
        <ele>42.967185</ele>
        <time>2024-09-08T08:07:08.000Z</time>
      </trkpt>
      <trkpt lat="40.970401" lon="-72.3171">
        <ele>43.325858</ele>
        <time>2024-09-08T08:07:13.000Z</time>
      </trkpt>
      <trkpt lat="40.970823" lon="-72.317353">
        <ele>43.626583</ele>
        <time>2024-09-08T08:07:18.000Z</time>
      </trkpt>
      <trkpt lat="40.971139" lon="-72.317454">
        <ele>43.672283</ele>
        <time>2024-09-08T08:07:22.000Z</time>
      </trkpt>
      <trkpt lat="40.971204" lon="-72.317458">
        <ele>43.681817</ele>
        <time>2024-09-08T08:07:23.000Z</time>
      </trkpt>
      <trkpt lat="40.971703" lon="-72.317433">
        <ele>43.754678</ele>
        <time>2024-09-08T08:07:29.000Z</time>
      </trkpt>
      <trkpt lat="40.971946" lon="-72.317381">
        <ele>43.790493</ele>
        <time>2024-09-08T08:07:32.000Z</time>
      </trkpt>
      <trkpt lat="40.972962" lon="-72.316959">
        <ele>43.460078</ele>
        <time>2024-09-08T08:07:44.000Z</time>
      </trkpt>
      <trkpt lat="40.973108" lon="-72.316961">
        <ele>43.352199</ele>
        <time>2024-09-08T08:07:46.000Z</time>
      </trkpt>
      <trkpt lat="40.973458" lon="-72.317076">
        <ele>43.063837</ele>
        <time>2024-09-08T08:07:50.000Z</time>
      </trkpt>
      <trkpt lat="40.973576" lon="-72.317145">
        <ele>42.961018</ele>
        <time>2024-09-08T08:07:51.000Z</time>
      </trkpt>
      <trkpt lat="40.97439" lon="-72.317747">
        <ele>42.479822</ele>
        <time>2024-09-08T08:08:01.000Z</time>
      </trkpt>
      <trkpt lat="40.974756" lon="-72.318006">
        <ele>42.519754</ele>
        <time>2024-09-08T08:08:06.000Z</time>
      </trkpt>
      <trkpt lat="40.974833" lon="-72.318061">
        <ele>42.528362</ele>
        <time>2024-09-08T08:08:07.000Z</time>
      </trkpt>
      <trkpt lat="40.975317" lon="-72.318641">
        <ele>42.592327</ele>
        <time>2024-09-08T08:08:14.000Z</time>
      </trkpt>
      <trkpt lat="40.975972" lon="-72.319467">
        <ele>42.335443</ele>
        <time>2024-09-08T08:08:24.000Z</time>
      </trkpt>
      <trkpt lat="40.976233" lon="-72.319601">
        <ele>42.190706</ele>
        <time>2024-09-08T08:08:27.000Z</time>
      </trkpt>
      <trkpt lat="40.97672" lon="-72.319699">
        <ele>41.931069</ele>
        <time>2024-09-08T08:08:32.000Z</time>
      </trkpt>
      <trkpt lat="40.976994" lon="-72.31994">
        <ele>41.747085</ele>
        <time>2024-09-08T08:08:36.000Z</time>
      </trkpt>
      <trkpt lat="40.977224" lon="-72.320171">
        <ele>41.33433</ele>
        <time>2024-09-08T08:08:39.000Z</time>
      </trkpt>
      <trkpt lat="40.977491" lon="-72.320556">
        <ele>40.345507</ele>
        <time>2024-09-08T08:08:43.000Z</time>
      </trkpt>
      <trkpt lat="40.97772" lon="-72.320667">
        <ele>39.696699</ele>
        <time>2024-09-08T08:08:46.000Z</time>
      </trkpt>
      <trkpt lat="40.97821" lon="-72.320636">
        <ele>38.480539</ele>
        <time>2024-09-08T08:08:51.000Z</time>
      </trkpt>
      <trkpt lat="40.97855" lon="-72.320827">
        <ele>37.559215</ele>
        <time>2024-09-08T08:08:55.000Z</time>
      </trkpt>
      <trkpt lat="40.978573" lon="-72.320846">
        <ele>37.467988</ele>
        <time>2024-09-08T08:08:55.000Z</time>
      </trkpt>
      <trkpt lat="40.978992" lon="-72.321121">
        <ele>36.133709</ele>
        <time>2024-09-08T08:09:00.000Z</time>
      </trkpt>
      <trkpt lat="40.979583" lon="-72.321543">
        <ele>34.129326</ele>
        <time>2024-09-08T08:09:07.000Z</time>
      </trkpt>
      <trkpt lat="40.979911" lon="-72.321879">
        <ele>32.82396</ele>
        <time>2024-09-08T08:09:12.000Z</time>
      </trkpt>
      <trkpt lat="40.980766" lon="-72.322885">
        <ele>29.658676</ele>
        <time>2024-09-08T08:09:25.000Z</time>
      </trkpt>
      <trkpt lat="40.981" lon="-72.32311">
        <ele>28.878512</ele>
        <time>2024-09-08T08:09:28.000Z</time>
      </trkpt>
      <trkpt lat="40.981148" lon="-72.32322">
        <ele>28.43598</ele>
        <time>2024-09-08T08:09:30.000Z</time>
      </trkpt>
      <trkpt lat="40.981731" lon="-72.323544">
        <ele>26.727363</ele>
        <time>2024-09-08T08:09:37.000Z</time>
      </trkpt>
      <trkpt lat="40.982602" lon="-72.3241">
        <ele>24.082232</ele>
        <time>2024-09-08T08:09:48.000Z</time>
      </trkpt>
      <trkpt lat="40.982988" lon="-72.324347">
        <ele>22.902379</ele>
        <time>2024-09-08T08:09:53.000Z</time>
      </trkpt>
      <trkpt lat="40.983477" lon="-72.324557">
        <ele>21.404164</ele>
        <time>2024-09-08T08:09:59.000Z</time>
      </trkpt>
      <trkpt lat="40.983853" lon="-72.324665">
        <ele>20.03786</ele>
        <time>2024-09-08T08:10:03.000Z</time>
      </trkpt>
      <trkpt lat="40.985878" lon="-72.324971">
        <ele>13.238711</ele>
        <time>2024-09-08T08:10:26.000Z</time>
      </trkpt>
      <trkpt lat="40.986325" lon="-72.325022">
        <ele>11.759695</ele>
        <time>2024-09-08T08:10:31.000Z</time>
      </trkpt>
      <trkpt lat="40.986483" lon="-72.325059">
        <ele>11.233759</ele>
        <time>2024-09-08T08:10:33.000Z</time>
      </trkpt>
      <trkpt lat="40.986575" lon="-72.325086">
        <ele>10.975121</ele>
        <time>2024-09-08T08:10:34.000Z</time>
      </trkpt>
      <trkpt lat="40.986653" lon="-72.325115">
        <ele>10.676388</ele>
        <time>2024-09-08T08:10:35.000Z</time>
      </trkpt>
      <trkpt lat="40.986836" lon="-72.325177">
        <ele>10.069445</ele>
        <time>2024-09-08T08:10:37.000Z</time>
      </trkpt>
      <trkpt lat="40.987093" lon="-72.325272">
        <ele>9.438673</ele>
        <time>2024-09-08T08:10:40.000Z</time>
      </trkpt>
      <trkpt lat="40.987149" lon="-72.325304">
        <ele>9.305127</ele>
        <time>2024-09-08T08:10:41.000Z</time>
      </trkpt>
      <trkpt lat="40.98741" lon="-72.325413">
        <ele>8.736135</ele>
        <time>2024-09-08T08:10:44.000Z</time>
      </trkpt>
      <trkpt lat="40.987454" lon="-72.325425">
        <ele>8.623381</ele>
        <time>2024-09-08T08:10:44.000Z</time>
      </trkpt>
      <trkpt lat="40.987521" lon="-72.325463">
        <ele>8.46537</ele>
        <time>2024-09-08T08:10:45.000Z</time>
      </trkpt>
      <trkpt lat="40.987817" lon="-72.325611">
        <ele>7.771569</ele>
        <time>2024-09-08T08:10:49.000Z</time>
      </trkpt>
      <trkpt lat="40.987933" lon="-72.325666">
        <ele>7.503301</ele>
        <time>2024-09-08T08:10:50.000Z</time>
      </trkpt>
      <trkpt lat="40.988088" lon="-72.325731">
        <ele>7.125488</ele>
        <time>2024-09-08T08:10:52.000Z</time>
      </trkpt>
      <trkpt lat="40.988256" lon="-72.325807">
        <ele>6.767988</ele>
        <time>2024-09-08T08:10:54.000Z</time>
      </trkpt>
      <trkpt lat="40.988312" lon="-72.325829">
        <ele>6.61158</ele>
        <time>2024-09-08T08:10:55.000Z</time>
      </trkpt>
      <trkpt lat="40.988798" lon="-72.326063">
        <ele>5.786771</ele>
        <time>2024-09-08T08:11:01.000Z</time>
      </trkpt>
      <trkpt lat="40.988853" lon="-72.326089">
        <ele>5.721522</ele>
        <time>2024-09-08T08:11:02.000Z</time>
      </trkpt>
      <trkpt lat="40.989179" lon="-72.326296">
        <ele>5.389798</ele>
        <time>2024-09-08T08:11:06.000Z</time>
      </trkpt>
      <trkpt lat="40.989219" lon="-72.326335">
        <ele>5.335444</ele>
        <time>2024-09-08T08:11:07.000Z</time>
      </trkpt>
      <trkpt lat="40.989329" lon="-72.326435">
        <ele>5.218504</ele>
        <time>2024-09-08T08:11:08.000Z</time>
      </trkpt>
      <trkpt lat="40.989507" lon="-72.326606">
        <ele>5.003814</ele>
        <time>2024-09-08T08:11:10.000Z</time>
      </trkpt>
      <trkpt lat="40.989563" lon="-72.326663">
        <ele>4.930729</ele>
        <time>2024-09-08T08:11:11.000Z</time>
      </trkpt>
      <trkpt lat="40.989678" lon="-72.326817">
        <ele>4.775781</ele>
        <time>2024-09-08T08:11:13.000Z</time>
      </trkpt>
      <trkpt lat="40.990332" lon="-72.327482">
        <ele>4.313953</ele>
        <time>2024-09-08T08:11:22.000Z</time>
      </trkpt>
      <trkpt lat="40.990661" lon="-72.327879">
        <ele>4.336853</ele>
        <time>2024-09-08T08:11:27.000Z</time>
      </trkpt>
      <trkpt lat="40.992291" lon="-72.329829">
        <ele>4.385504</ele>
        <time>2024-09-08T08:11:51.000Z</time>
      </trkpt>
      <trkpt lat="40.992594" lon="-72.330112">
        <ele>4.384276</ele>
        <time>2024-09-08T08:11:55.000Z</time>
      </trkpt>
      <trkpt lat="40.992989" lon="-72.330425">
        <ele>4.211088</ele>
        <time>2024-09-08T08:12:00.000Z</time>
      </trkpt>
      <trkpt lat="40.993218" lon="-72.330661">
        <ele>3.93997</ele>
        <time>2024-09-08T08:12:03.000Z</time>
      </trkpt>
      <trkpt lat="40.993644" lon="-72.331268">
        <ele>3.369318</ele>
        <time>2024-09-08T08:12:10.000Z</time>
      </trkpt>
      <trkpt lat="40.993765" lon="-72.331463">
        <ele>3.187843</ele>
        <time>2024-09-08T08:12:12.000Z</time>
      </trkpt>
      <trkpt lat="40.993908" lon="-72.331696">
        <ele>2.98442</ele>
        <time>2024-09-08T08:12:15.000Z</time>
      </trkpt>
      <trkpt lat="40.994102" lon="-72.331811">
        <ele>2.791195</ele>
        <time>2024-09-08T08:12:17.000Z</time>
      </trkpt>
      <trkpt lat="40.994252" lon="-72.331835">
        <ele>2.63824</ele>
        <time>2024-09-08T08:12:19.000Z</time>
      </trkpt>
      <trkpt lat="40.994429" lon="-72.331656">
        <ele>2.412675</ele>
        <time>2024-09-08T08:12:21.000Z</time>
      </trkpt>
      <trkpt lat="40.994573" lon="-72.331341">
        <ele>2.136446</ele>
        <time>2024-09-08T08:12:24.000Z</time>
      </trkpt>
      <trkpt lat="40.994757" lon="-72.330646">
        <ele>1.584203</ele>
        <time>2024-09-08T08:12:30.000Z</time>
      </trkpt>
      <trkpt lat="40.994823" lon="-72.330262">
        <ele>1.288687</ele>
        <time>2024-09-08T08:12:33.000Z</time>
      </trkpt>
      <trkpt lat="40.994859" lon="-72.329818">
        <ele>0.94292</ele>
        <time>2024-09-08T08:12:37.000Z</time>
      </trkpt>
      <trkpt lat="40.994926" lon="-72.328803">
        <ele>0.70148</ele>
        <time>2024-09-08T08:12:46.000Z</time>
      </trkpt>
      <trkpt lat="40.995051" lon="-72.327983">
        <ele>0.506822</ele>
        <time>2024-09-08T08:12:53.000Z</time>
      </trkpt>
      <trkpt lat="40.995212" lon="-72.327365">
        <ele>0.385319</ele>
        <time>2024-09-08T08:12:58.000Z</time>
      </trkpt>
      <trkpt lat="40.995542" lon="-72.326523">
        <ele>0.455983</ele>
        <time>2024-09-08T08:13:06.000Z</time>
      </trkpt>
      <trkpt lat="40.995875" lon="-72.325917">
        <ele>0.512277</ele>
        <time>2024-09-08T08:13:12.000Z</time>
      </trkpt>
      <trkpt lat="40.996328" lon="-72.32523">
        <ele>0.581207</ele>
        <time>2024-09-08T08:13:20.000Z</time>
      </trkpt>
      <trkpt lat="40.997779" lon="-72.323122">
        <ele>0.741049</ele>
        <time>2024-09-08T08:13:44.000Z</time>
      </trkpt>
      <trkpt lat="40.99814" lon="-72.322608">
        <ele>0.772620605612</ele>
        <time>2024-09-08T08:13:50.000Z</time>
      </trkpt>
      <trkpt lat="40.998176" lon="-72.322563">
        <ele>0.775569267106</ele>
        <time>2024-09-08T08:13:51.000Z</time>
      </trkpt>
    </trkseg>
  </trk>
</gpx>

<!--
Performance optimized by W3 Total Cache. Learn more: https://www.boldgrid.com/w3-total-cache/?utm_source=w3tc&utm_medium=footer_comment&utm_campaign=free_plugin

Page Caching using Disk: Enhanced{w3tc_pagecache_reject_reason} 

Served from: www.aquabike.world @ 2026-05-10 20:06:05 by W3 Total Cache
-->